Wetterdaten: Mittwoch, 28.08.2019
Datum Zeit Temp. Aussen Temp. o. S. +5cm Feuchte Auss Luftdruck Regen Sonnenschein Regendauer Solar Windben Empfang
28.08.2019 00:00 24,4 C 22,8 C 22,2 C 72 % 1011,9 hPa 0,0 l/m 0 min 0 min 0 W/m 0,0 km/h (0 Bft) 93,62 %
28.08.2019 00:02 24,4 C 22,2 C 22,2 C 72 % 1011,9 hPa 0,0 l/m 0 min 0 min 0 W/m 3,2 km/h (1 Bft) 100,00 %
28.08.2019 00:04 24,3 C 22,2 C 22,2 C 72 % 1011,8 hPa 0,0 l/m 0 min 0 min 0 W/m 0,0 km/h (0 Bft) 95,74 %
28.08.2019 00:08 24,3 C 22,2 C 22,2 C 73 % 1011,8 hPa 0,0 l/m 0 min 0 min 0 W/m 0,0 km/h (0 Bft) 93,55 %
28.08.2019 00:10 24,2 C 22,2 C 22,2 C 73 % 1011,7 hPa 0,0 l/m 0 min 0 min 0 W/m 0,0 km/h (0 Bft) 95,74 %
28.08.2019 00:12 24,2 C 22,2 C 22,2 C 73 % 1011,7 hPa 0,0 l/m 0 min 0 min 0 W/m 0,0 km/h (0 Bft) 97,87 %
28.08.2019 00:14 24,2 C 22,2 C 21,7 C 73 % 1011,6 hPa 0,0 l/m 0 min 0 min 0 W/m 0,0 km/h (0 Bft) 95,74 %
28.08.2019 00:16 24,1 C 22,2 C 21,7 C 73 % 1011,6 hPa 0,0 l/m 0 min 0 min 0 W/m 0,0 km/h (0 Bft) 95,74 %
28.08.2019 00:18 24,1 C 22,2 C 21,7 C 73 % 1011,6 hPa 0,0 l/m 0 min 0 min 0 W/m 0,0 km/h (0 Bft) 93,48 %
28.08.2019 00:20 24,1 C 22,2 C 21,7 C 73 % 1011,6 hPa 0,0 l/m 0 min 0 min 0 W/m 3,2 km/h (1 Bft) 93,62 %
28.08.2019 00:22 24,0 C 22,2 C 21,7 C 73 % 1011,7 hPa 0,0 l/m 0 min 0 min 0 W/m 0,0 km/h (0 Bft) 95,74 %
28.08.2019 00:24 24,0 C 22,2 C 21,7 C 74 % 1011,6 hPa 0,0 l/m 0 min 0 min 0 W/m 3,2 km/h (1 Bft) 91,49 %
28.08.2019 00:26 23,9 C 22,2 C 21,7 C 74 % 1011,6 hPa 0,0 l/m 0 min 0 min 0 W/m 6,4 km/h (2 Bft) 97,87 %
28.08.2019 00:28 23,9 C 21,7 C 21,7 C 74 % 1011,5 hPa 0,0 l/m 0 min 0 min 0 W/m 3,2 km/h (1 Bft) 93,62 %
28.08.2019 00:30 23,9 C 21,7 C 21,7 C 74 % 1011,6 hPa 0,0 l/m 0 min 0 min 0 W/m 0,0 km/h (0 Bft) 95,65 %
28.08.2019 00:32 23,8 C 21,7 C 21,7 C 74 % 1011,6 hPa 0,0 l/m 0 min 0 min 0 W/m 0,0 km/h (0 Bft) 95,74 %
28.08.2019 00:34 23,8 C 21,7 C 21,7 C 74 % 1011,5 hPa 0,0 l/m 0 min 0 min 0 W/m 0,0 km/h (0 Bft) 93,62 %
28.08.2019 00:36 23,7 C 21,7 C 21,7 C 74 % 1011,4 hPa 0,0 l/m 0 min 0 min 0 W/m 0,0 km/h (0 Bft) 95,74 %
28.08.2019 00:38 23,7 C 21,7 C 21,7 C 74 % 1011,4 hPa 0,0 l/m 0 min 0 min 0 W/m 0,0 km/h (0 Bft) 97,87 %
28.08.2019 00:40 23,7 C 21,7 C 21,7 C 74 % 1011,4 hPa 0,0 l/m 0 min 0 min 0 W/m 0,0 km/h (0 Bft) 95,74 %
28.08.2019 00:42 23,6 C 21,7 C 21,7 C 74 % 1011,4 hPa 0,0 l/m 0 min 0 min 0 W/m 3,2 km/h (1 Bft) 97,83 %
28.08.2019 00:44 23,6 C 21,7 C 21,7 C 74 % 1011,4 hPa 0,0 l/m 0 min 0 min 0 W/m 9,7 km/h (2 Bft) 97,87 %
28.08.2019 00:46 23,6 C 21,7 C 21,7 C 74 % 1011,4 hPa 0,0 l/m 0 min 0 min 0 W/m 3,2 km/h (1 Bft) 97,87 %
28.08.2019 00:48 23,5 C 21,7 C 21,7 C 75 % 1011,4 hPa 0,0 l/m 0 min 0 min 0 W/m 9,7 km/h (2 Bft) 95,74 %
28.08.2019 00:50 23,4 C 21,7 C 21,1 C 75 % 1011,4 hPa 0,0 l/m 0 min 0 min 0 W/m 3,2 km/h (1 Bft) 97,87 %
28.08.2019 00:52 23,4 C 21,7 C 21,1 C 75 % 1011,3 hPa 0,0 l/m 0 min 0 min 0 W/m 0,0 km/h (0 Bft) 97,83 %
28.08.2019 00:54 23,4 C 21,7 C 21,1 C 75 % 1011,3 hPa 0,0 l/m 0 min 0 min 0 W/m 0,0 km/h (0 Bft) 95,74 %
28.08.2019 00:56 23,3 C 21,7 C 21,7 C 75 % 1011,4 hPa 0,0 l/m 0 min 0 min 0 W/m 3,2 km/h (1 Bft) 95,74 %
28.08.2019 00:58 23,3 C 21,7 C 21,7 C 75 % 1011,4 hPa 0,0 l/m 0 min 0 min 0 W/m 3,2 km/h (1 Bft) 97,87 %
28.08.2019 01:00 23,2 C 21,7 C 21,7 C 75 % 1011,4 hPa 0,0 l/m 0 min 0 min 0 W/m 3,2 km/h (1 Bft) 97,87 %
28.08.2019 01:02 23,2 C 21,7 C 21,1 C 75 % 1011,4 hPa 0,0 l/m 0 min 0 min 0 W/m 6,4 km/h (2 Bft) 97,87 %
28.08.2019 01:04 23,2 C 21,7 C 21,1 C 75 % 1011,3 hPa 0,0 l/m 0 min 0 min 0 W/m 6,4 km/h (2 Bft) 100,00 %
28.08.2019 01:06 23,1 C 21,7 C 21,1 C 75 % 1011,4 hPa 0,0 l/m 0 min 0 min 0 W/m 0,0 km/h (0 Bft) 100,00 %
28.08.2019 01:08 23,1 C 21,7 C 21,1 C 75 % 1011,4 hPa 0,0 l/m 0 min 0 min 0 W/m 0,0 km/h (0 Bft) 100,00 %
28.08.2019 01:10 23,1 C 21,7 C 21,1 C 75 % 1011,3 hPa 0,0 l/m 0 min 0 min 0 W/m 0,0 km/h (0 Bft) 100,00 %
28.08.2019 01:12 23,1 C 21,7 C 21,1 C 75 % 1011,4 hPa 0,0 l/m 0 min 0 min 0 W/m 0,0 km/h (0 Bft) 97,87 %
28.08.2019 01:14 23,0 C 21,1 C 21,1 C 75 % 1011,4 hPa 0,0 l/m 0 min 0 min 0 W/m 0,0 km/h (0 Bft) 100,00 %
28.08.2019 01:16 23,0 C 21,7 C 21,1 C 75 % 1011,3 hPa 0,0 l/m 0 min 0 min 0 W/m 6,4 km/h (2 Bft) 100,00 %
28.08.2019 01:18 23,0 C 21,7 C 21,1 C 76 % 1011,4 hPa 0,0 l/m 0 min 0 min 0 W/m 9,7 km/h (2 Bft) 100,00 %
28.08.2019 01:20 22,9 C 21,7 C 21,7 C 76 % 1011,3 hPa 0,0 l/m 0 min 0 min 0 W/m 9,7 km/h (2 Bft) 95,74 %
28.08.2019 01:22 22,9 C 21,7 C 21,1 C 76 % 1011,4 hPa 0,0 l/m 0 min 0 min 0 W/m 6,4 km/h (2 Bft) 100,00 %
28.08.2019 01:24 22,9 C 21,7 C 21,1 C 76 % 1011,4 hPa 0,0 l/m 0 min 0 min 0 W/m 3,2 km/h (1 Bft) 100,00 %
28.08.2019 01:26 22,9 C 21,7 C 21,1 C 76 % 1011,3 hPa 0,0 l/m 0 min 0 min 0 W/m 3,2 km/h (1 Bft) 100,00 %
28.08.2019 01:28 22,8 C 21,1 C 21,1 C 76 % 1011,3 hPa 0,0 l/m 0 min 0 min 0 W/m 3,2 km/h (1 Bft) 100,00 %
28.08.2019 01:30 22,8 C 21,1 C 21,1 C 76 % 1011,3 hPa 0,0 l/m 0 min 0 min 0 W/m 3,2 km/h (1 Bft) 100,00 %
28.08.2019 01:32 22,8 C 21,1 C 21,1 C 77 % 1011,2 hPa 0,0 l/m 0 min 0 min 0 W/m 3,2 km/h (1 Bft) 100,00 %
28.08.2019 01:34 22,8 C 21,1 C 21,1 C 77 % 1011,2 hPa 0,0 l/m 0 min 0 min 0 W/m 9,7 km/h (2 Bft) 100,00 %
28.08.2019 01:36 22,8 C 21,1 C 21,1 C 77 % 1011,1 hPa 0,0 l/m 0 min 0 min 0 W/m 6,4 km/h (2 Bft) 100,00 %
28.08.2019 01:38 22,7 C 21,1 C 21,1 C 77 % 1011,2 hPa 0,0 l/m 0 min 0 min 0 W/m 3,2 km/h (1 Bft) 100,00 %
28.08.2019 01:40 22,7 C 21,1 C 21,1 C 77 % 1011,2 hPa 0,0 l/m 0 min 0 min 0 W/m 6,4 km/h (2 Bft) 100,00 %
28.08.2019 01:42 22,7 C 21,1 C 21,1 C 77 % 1011,2 hPa 0,0 l/m 0 min 0 min 0 W/m 6,4 km/h (2 Bft) 100,00 %
28.08.2019 01:44 22,7 C 21,1 C 21,1 C 77 % 1011,2 hPa 0,0 l/m 0 min 0 min 0 W/m 6,4 km/h (2 Bft) 100,00 %
28.08.2019 01:46 22,7 C 21,1 C 21,1 C 78 % 1011,2 hPa 0,0 l/m 0 min 0 min 0 W/m 9,7 km/h (2 Bft) 97,87 %
28.08.2019 01:48 22,6 C 21,1 C 21,1 C 78 % 1011,2 hPa 0,0 l/m 0 min 0 min 0 W/m 6,4 km/h (2 Bft) 100,00 %
28.08.2019 01:50 22,6 C 21,1 C 21,1 C 78 % 1011,1 hPa 0,0 l/m 0 min 0 min 0 W/m 6,4 km/h (2 Bft) 100,00 %
28.08.2019 01:52 22,6 C 21,1 C 21,1 C 78 % 1011,1 hPa 0,0 l/m 0 min 0 min 0 W/m 6,4 km/h (2 Bft) 100,00 %
28.08.2019 01:54 22,6 C 21,1 C 21,1 C 78 % 1011,1 hPa 0,0 l/m 0 min 0 min 0 W/m 6,4 km/h (2 Bft) 97,87 %
28.08.2019 01:56 22,5 C 21,1 C 21,1 C 78 % 1011,1 hPa 0,0 l/m 0 min 0 min 0 W/m 6,4 km/h (2 Bft) 100,00 %
28.08.2019 01:58 22,5 C 21,1 C 21,1 C 78 % 1011,1 hPa 0,0 l/m 0 min 0 min 0 W/m 9,7 km/h (2 Bft) 97,87 %
28.08.2019 02:00 22,5 C 21,1 C 21,1 C 78 % 1011,1 hPa 0,0 l/m 0 min 0 min 0 W/m 6,4 km/h (2 Bft) 100,00 %
28.08.2019 02:02 22,4 C 21,1 C 21,1 C 78 % 1011,1 hPa 0,0 l/m 0 min 0 min 0 W/m 3,2 km/h (1 Bft) 100,00 %
28.08.2019 02:04 22,4 C 21,1 C 21,1 C 79 % 1011,0 hPa 0,0 l/m 0 min 0 min 0 W/m 9,7 km/h (2 Bft) 97,83 %
28.08.2019 02:06 22,4 C 21,1 C 21,1 C 79 % 1011,0 hPa 0,0 l/m 0 min 0 min 0 W/m 3,2 km/h (1 Bft) 100,00 %
28.08.2019 02:08 22,4 C 21,1 C 21,1 C 79 % 1011,1 hPa 0,0 l/m 0 min 0 min 0 W/m 9,7 km/h (2 Bft) 100,00 %
28.08.2019 02:10 22,4 C 21,1 C 21,1 C 79 % 1011,0 hPa 0,0 l/m 0 min 0 min 0 W/m 9,7 km/h (2 Bft) 97,87 %
28.08.2019 02:12 22,4 C 21,1 C 21,1 C 79 % 1011,0 hPa 0,0 l/m 0 min 0 min 0 W/m 6,4 km/h (2 Bft) 100,00 %
28.08.2019 02:14 22,4 C 21,1 C 21,1 C 80 % 1010,9 hPa 0,0 l/m 0 min 0 min 0 W/m 3,2 km/h (1 Bft) 100,00 %
28.08.2019 02:16 22,4 C 21,1 C 21,1 C 80 % 1011,0 hPa 0,0 l/m 0 min 0 min 0 W/m 3,2 km/h (1 Bft) 97,87 %
28.08.2019 02:18 22,3 C 21,1 C 21,1 C 80 % 1011,0 hPa 0,0 l/m 0 min 0 min 0 W/m 9,7 km/h (2 Bft) 100,00 %
28.08.2019 02:20 22,3 C 21,1 C 21,1 C 80 % 1011,0 hPa 0,0 l/m 0 min 0 min 0 W/m 6,4 km/h (2 Bft) 100,00 %
28.08.2019 02:22 22,3 C 21,1 C 21,1 C 80 % 1011,0 hPa 0,0 l/m 0 min 0 min 0 W/m 3,2 km/h (1 Bft) 97,87 %
28.08.2019 02:24 22,3 C 21,1 C 21,1 C 80 % 1011,0 hPa 0,0 l/m 0 min 0 min 0 W/m 6,4 km/h (2 Bft) 100,00 %
28.08.2019 02:26 22,3 C 21,1 C 21,1 C 80 % 1010,9 hPa 0,0 l/m 0 min 0 min 0 W/m 6,4 km/h (2 Bft) 97,87 %
28.08.2019 02:28 22,3 C 21,1 C 21,1 C 81 % 1010,9 hPa 0,0 l/m 0 min 0 min 0 W/m 16,1 km/h (3 Bft) 100,00 %
28.08.2019 02:30 22,3 C 21,1 C 21,1 C 81 % 1010,9 hPa 0,0 l/m 0 min 0 min 0 W/m 3,2 km/h (1 Bft) 100,00 %
28.08.2019 02:32 22,3 C 21,1 C 21,1 C 81 % 1010,9 hPa 0,0 l/m 0 min 0 min 0 W/m 6,4 km/h (2 Bft) 97,87 %
28.08.2019 02:34 22,3 C 21,1 C 21,1 C 81 % 1011,0 hPa 0,0 l/m 0 min 0 min 0 W/m 9,7 km/h (2 Bft) 95,74 %
28.08.2019 02:36 22,2 C 21,1 C 21,1 C 81 % 1011,0 hPa 0,0 l/m 0 min 0 min 0 W/m 6,4 km/h (2 Bft) 93,62 %
28.08.2019 02:38 22,2 C 21,1 C 20,6 C 81 % 1011,0 hPa 0,0 l/m 0 min 0 min 0 W/m 9,7 km/h (2 Bft) 93,48 %
28.08.2019 02:40 22,2 C 21,1 C 20,6 C 81 % 1010,9 hPa 0,0 l/m 0 min 0 min 0 W/m 9,7 km/h (2 Bft) 93,62 %
28.08.2019 02:42 22,2 C 21,1 C 20,6 C 81 % 1010,9 hPa 0,0 l/m 0 min 0 min 0 W/m 3,2 km/h (1 Bft) 93,62 %
28.08.2019 02:44 22,2 C 21,1 C 20,6 C 81 % 1010,9 hPa 0,0 l/m 0 min 0 min 0 W/m 9,7 km/h (2 Bft) 93,62 %
28.08.2019 02:46 22,2 C 21,1 C 20,6 C 81 % 1010,9 hPa 0,0 l/m 0 min 0 min 0 W/m 3,2 km/h (1 Bft) 95,74 %
28.08.2019 02:48 22,2 C 21,1 C 20,6 C 81 % 1010,9 hPa 0,0 l/m 0 min 0 min 0 W/m 6,4 km/h (2 Bft) 95,74 %
28.08.2019 02:50 22,2 C 21,1 C 20,6 C 81 % 1011,0 hPa 0,0 l/m 0 min 0 min 0 W/m 6,4 km/h (2 Bft) 95,65 %
28.08.2019 02:52 22,2 C 21,1 C 20,6 C 81 % 1010,9 hPa 0,0 l/m 0 min 0 min 0 W/m 6,4 km/h (2 Bft) 95,74 %
28.08.2019 02:54 22,1 C 21,1 C 20,6 C 81 % 1011,0 hPa 0,0 l/m 0 min 0 min 0 W/m 9,7 km/h (2 Bft) 93,62 %
28.08.2019 02:56 22,1 C 21,1 C 20,6 C 82 % 1010,9 hPa 0,0 l/m 0 min 0 min 0 W/m 6,4 km/h (2 Bft) 95,74 %
28.08.2019 02:58 22,1 C 21,1 C 20,6 C 82 % 1010,9 hPa 0,0 l/m 0 min 0 min 0 W/m 6,4 km/h (2 Bft) 95,74 %
28.08.2019 03:00 22,1 C 21,1 C 20,6 C 82 % 1010,9 hPa 0,0 l/m 0 min 0 min 0 W/m 3,2 km/h (1 Bft) 91,49 %
28.08.2019 03:02 22,1 C 20,6 C 20,6 C 82 % 1010,9 hPa 0,0 l/m 0 min 0 min 0 W/m 6,4 km/h (2 Bft) 95,65 %
28.08.2019 03:04 22,1 C 20,6 C 20,6 C 82 % 1010,9 hPa 0,0 l/m 0 min 0 min 0 W/m 12,9 km/h (3 Bft) 91,49 %
28.08.2019 03:06 22,1 C 20,6 C 20,6 C 82 % 1010,9 hPa 0,0 l/m 0 min 0 min 0 W/m 6,4 km/h (2 Bft) 95,74 %
28.08.2019 03:08 22,1 C 20,6 C 20,6 C 82 % 1010,8 hPa 0,0 l/m 0 min 0 min 0 W/m 16,1 km/h (3 Bft) 93,62 %
28.08.2019 03:10 22,0 C 20,6 C 20,6 C 82 % 1010,9 hPa 0,0 l/m 0 min 0 min 0 W/m 9,7 km/h (2 Bft) 93,62 %
28.08.2019 03:12 22,0 C 20,6 C 20,6 C 82 % 1010,9 hPa 0,0 l/m 0 min 0 min 0 W/m 9,7 km/h (2 Bft) 93,62 %
28.08.2019 03:14 21,9 C 20,6 C 20,6 C 82 % 1010,8 hPa 0,0 l/m 0 min 0 min 0 W/m 9,7 km/h (2 Bft) 93,48 %
28.08.2019 03:16 21,9 C 20,6 C 20,6 C 82 % 1010,9 hPa 0,0 l/m 0 min 0 min 0 W/m 3,2 km/h (1 Bft) 93,62 %
28.08.2019 03:18 21,9 C 20,6 C 20,6 C 82 % 1010,8 hPa 0,0 l/m 0 min 0 min 0 W/m 6,4 km/h (2 Bft) 95,74 %
28.08.2019 03:20 21,9 C 20,6 C 20,6 C 82 % 1010,8 hPa 0,0 l/m 0 min 0 min 0 W/m 9,7 km/h (2 Bft) 93,62 %
28.08.2019 03:22 21,9 C 20,6 C 20,6 C 82 % 1010,8 hPa 0,0 l/m 0 min 0 min 0 W/m 9,7 km/h (2 Bft) 95,74 %
28.08.2019 03:24 21,9 C 20,6 C 20,6 C 82 % 1010,7 hPa 0,0 l/m 0 min 0 min 0 W/m 6,4 km/h (2 Bft) 95,74 %
28.08.2019 03:26 21,9 C 20,6 C 20,6 C 82 % 1010,8 hPa 0,0 l/m 0 min 0 min 0 W/m 6,4 km/h (2 Bft) 93,48 %
28.08.2019 03:28 21,8 C 20,6 C 20,6 C 82 % 1010,7 hPa 0,0 l/m 0 min 0 min 0 W/m 6,4 km/h (2 Bft) 95,74 %
28.08.2019 03:30 21,8 C 20,6 C 20,6 C 83 % 1010,8 hPa 0,0 l/m 0 min 0 min 0 W/m 3,2 km/h (1 Bft) 97,87 %
28.08.2019 03:32 21,8 C 20,6 C 20,6 C 83 % 1010,8 hPa 0,0 l/m 0 min 0 min 0 W/m 3,2 km/h (1 Bft) 93,62 %
28.08.2019 03:34 21,8 C 20,6 C 20,6 C 82 % 1010,8 hPa 0,0 l/m 0 min 0 min 0 W/m 6,4 km/h (2 Bft) 97,87 %
28.08.2019 03:36 21,8 C 20,6 C 20,0 C 82 % 1010,8 hPa 0,0 l/m 0 min 0 min 0 W/m 6,4 km/h (2 Bft) 93,48 %
28.08.2019 03:38 21,8 C 20,0 C 20,0 C 83 % 1010,7 hPa 0,0 l/m 0 min 0 min 0 W/m 6,4 km/h (2 Bft) 97,87 %
28.08.2019 03:40 21,7 C 20,0 C 20,0 C 83 % 1010,8 hPa 0,0 l/m 0 min 0 min 0 W/m 3,2 km/h (1 Bft) 95,74 %
28.08.2019 03:42 21,7 C 20,0 C 20,0 C 83 % 1010,8 hPa 0,0 l/m 0 min 0 min 0 W/m 0,0 km/h (0 Bft) 93,62 %
28.08.2019 03:44 21,7 C 20,0 C 20,0 C 83 % 1010,8 hPa 0,0 l/m 0 min 0 min 0 W/m 3,2 km/h (1 Bft) 97,87 %
28.08.2019 03:46 21,7 C 20,0 C 20,0 C 83 % 1010,8 hPa 0,0 l/m 0 min 0 min 0 W/m 6,4 km/h (2 Bft) 97,87 %
28.08.2019 03:48 21,7 C 20,0 C 20,0 C 83 % 1010,8 hPa 0,0 l/m 0 min 0 min 0 W/m 6,4 km/h (2 Bft) 97,83 %
28.08.2019 03:50 21,7 C 20,0 C 20,0 C 83 % 1010,8 hPa 0,0 l/m 0 min 0 min 0 W/m 3,2 km/h (1 Bft) 97,87 %
28.08.2019 03:52 21,6 C 20,0 C 20,0 C 83 % 1010,8 hPa 0,0 l/m 0 min 0 min 0 W/m 9,7 km/h (2 Bft) 95,74 %
28.08.2019 03:54 21,6 C 20,0 C 20,0 C 83 % 1010,8 hPa 0,0 l/m 0 min 0 min 0 W/m 3,2 km/h (1 Bft) 97,87 %
28.08.2019 03:56 21,6 C 20,0 C 20,0 C 83 % 1010,8 hPa 0,0 l/m 0 min 0 min 0 W/m 6,4 km/h (2 Bft) 97,87 %
28.08.2019 03:58 21,6 C 20,0 C 20,0 C 83 % 1010,9 hPa 0,0 l/m 0 min 0 min 0 W/m 3,2 km/h (1 Bft) 97,87 %
28.08.2019 04:00 21,6 C 20,0 C 20,0 C 84 % 1010,9 hPa 0,0 l/m 0 min 0 min 0 W/m 6,4 km/h (2 Bft) 95,65 %
28.08.2019 04:05 21,5 C 20,0 C 20,0 C 84 % 1010,9 hPa 0,0 l/m 0 min 0 min 0 W/m 9,7 km/h (2 Bft) 100,00 %
28.08.2019 04:06 21,5 C 20,0 C 20,0 C 84 % 1010,9 hPa 0,0 l/m 0 min 0 min 0 W/m 9,7 km/h (2 Bft) 100,00 %
28.08.2019 04:08 21,4 C 20,0 C 20,0 C 84 % 1010,9 hPa 0,0 l/m 0 min 0 min 0 W/m 6,4 km/h (2 Bft) 97,87 %
28.08.2019 04:10 21,4 C 20,0 C 20,0 C 84 % 1010,9 hPa 0,0 l/m 0 min 0 min 0 W/m 6,4 km/h (2 Bft) 100,00 %
28.08.2019 04:12 21,4 C 20,0 C 20,0 C 84 % 1011,0 hPa 0,0 l/m 0 min 0 min 0 W/m 3,2 km/h (1 Bft) 97,83 %
28.08.2019 04:14 21,4 C 20,0 C 20,0 C 84 % 1010,9 hPa 0,0 l/m 0 min 0 min 0 W/m 6,4 km/h (2 Bft) 97,87 %
28.08.2019 04:16 21,4 C 20,0 C 20,0 C 84 % 1010,9 hPa 0,0 l/m 0 min 0 min 0 W/m 9,7 km/h (2 Bft) 100,00 %
28.08.2019 04:18 21,4 C 20,0 C 20,0 C 84 % 1011,0 hPa 0,0 l/m 0 min 0 min 0 W/m 3,2 km/h (1 Bft) 100,00 %
28.08.2019 04:20 21,4 C 20,0 C 20,0 C 84 % 1011,0 hPa 0,0 l/m 0 min 0 min 0 W/m 6,4 km/h (2 Bft) 100,00 %
28.08.2019 04:22 21,3 C 20,0 C 20,0 C 84 % 1011,0 hPa 0,0 l/m 0 min 0 min 0 W/m 3,2 km/h (1 Bft) 100,00 %
28.08.2019 04:24 21,3 C 20,0 C 20,0 C 84 % 1011,0 hPa 0,0 l/m 0 min 0 min 0 W/m 6,4 km/h (2 Bft) 100,00 %
28.08.2019 04:26 21,3 C 20,0 C 20,0 C 85 % 1011,0 hPa 0,0 l/m 0 min 0 min 0 W/m 9,7 km/h (2 Bft) 100,00 %
28.08.2019 04:28 21,3 C 20,0 C 20,0 C 85 % 1011,0 hPa 0,0 l/m 0 min 0 min 0 W/m 6,4 km/h (2 Bft) 100,00 %
28.08.2019 04:30 21,3 C 20,0 C 20,0 C 85 % 1011,0 hPa 0,0 l/m 0 min 0 min 0 W/m 6,4 km/h (2 Bft) 100,00 %
28.08.2019 04:32 21,3 C 20,0 C 20,0 C 85 % 1011,0 hPa 0,0 l/m 0 min 0 min 0 W/m 9,7 km/h (2 Bft) 95,74 %
28.08.2019 04:34 21,3 C 20,0 C 20,0 C 85 % 1011,0 hPa 0,0 l/m 0 min 0 min 0 W/m 9,7 km/h (2 Bft) 100,00 %
28.08.2019 04:36 21,2 C 20,0 C 20,0 C 85 % 1011,0 hPa 0,0 l/m 0 min 0 min 0 W/m 6,4 km/h (2 Bft) 97,87 %
28.08.2019 04:38 21,2 C 20,0 C 20,0 C 85 % 1010,9 hPa 0,0 l/m 0 min 0 min 0 W/m 6,4 km/h (2 Bft) 100,00 %
28.08.2019 04:40 21,2 C 20,0 C 19,4 C 85 % 1011,0 hPa 0,0 l/m 0 min 0 min 0 W/m 3,2 km/h (1 Bft) 100,00 %
28.08.2019 04:42 21,2 C 20,0 C 19,4 C 86 % 1011,0 hPa 0,0 l/m 0 min 0 min 0 W/m 3,2 km/h (1 Bft) 95,74 %
28.08.2019 04:44 21,2 C 20,0 C 19,4 C 86 % 1011,0 hPa 0,0 l/m 0 min 0 min 0 W/m 3,2 km/h (1 Bft) 100,00 %
28.08.2019 04:46 21,2 C 19,4 C 19,4 C 86 % 1011,0 hPa 0,0 l/m 0 min 0 min 0 W/m 6,4 km/h (2 Bft) 97,83 %
28.08.2019 04:48 21,1 C 19,4 C 19,4 C 86 % 1011,0 hPa 0,0 l/m 0 min 0 min 0 W/m 9,7 km/h (2 Bft) 100,00 %
28.08.2019 04:50 21,1 C 19,4 C 19,4 C 86 % 1011,0 hPa 0,0 l/m 0 min 0 min 0 W/m 9,7 km/h (2 Bft) 100,00 %
28.08.2019 04:52 21,1 C 19,4 C 19,4 C 86 % 1011,0 hPa 0,0 l/m 0 min 0 min 0 W/m 6,4 km/h (2 Bft) 97,87 %
28.08.2019 04:54 21,1 C 19,4 C 19,4 C 86 % 1011,0 hPa 0,0 l/m 0 min 0 min 0 W/m 9,7 km/h (2 Bft) 100,00 %
28.08.2019 04:56 21,0 C 19,4 C 19,4 C 86 % 1011,0 hPa 0,0 l/m 0 min 0 min 0 W/m 9,7 km/h (2 Bft) 97,87 %
28.08.2019 04:58 21,0 C 19,4 C 19,4 C 86 % 1011,0 hPa 0,0 l/m 0 min 0 min 0 W/m 6,4 km/h (2 Bft) 97,83 %
28.08.2019 05:00 21,0 C 19,4 C 19,4 C 86 % 1011,0 hPa 0,0 l/m 0 min 0 min 0 W/m 6,4 km/h (2 Bft) 100,00 %
28.08.2019 05:02 21,0 C 19,4 C 19,4 C 86 % 1010,9 hPa 0,0 l/m 0 min 0 min 0 W/m 16,1 km/h (3 Bft) 100,00 %
28.08.2019 05:04 21,0 C 19,4 C 19,4 C 86 % 1011,0 hPa 0,0 l/m 0 min 0 min 0 W/m 3,2 km/h (1 Bft) 100,00 %
28.08.2019 05:06 20,9 C 19,4 C 19,4 C 87 % 1011,0 hPa 0,0 l/m 0 min 0 min 0 W/m 3,2 km/h (1 Bft) 100,00 %
28.08.2019 05:08 20,9 C 19,4 C 19,4 C 87 % 1011,0 hPa 0,0 l/m 0 min 0 min 0 W/m 3,2 km/h (1 Bft) 100,00 %
28.08.2019 05:10 20,9 C 19,4 C 19,4 C 87 % 1011,0 hPa 0,0 l/m 0 min 0 min 0 W/m 3,2 km/h (1 Bft) 100,00 %
28.08.2019 05:12 20,9 C 19,4 C 19,4 C 87 % 1011,0 hPa 0,0 l/m 0 min 0 min 0 W/m 6,4 km/h (2 Bft) 100,00 %
28.08.2019 05:14 20,9 C 19,4 C 19,4 C 87 % 1010,9 hPa 0,0 l/m 0 min 0 min 0 W/m 6,4 km/h (2 Bft) 97,87 %
28.08.2019 05:16 20,8 C 19,4 C 19,4 C 87 % 1010,9 hPa 0,0 l/m 0 min 0 min 0 W/m 3,2 km/h (1 Bft) 97,87 %
28.08.2019 05:18 20,8 C 19,4 C 19,4 C 87 % 1010,9 hPa 0,0 l/m 0 min 0 min 0 W/m 3,2 km/h (1 Bft) 97,87 %
28.08.2019 05:20 20,8 C 19,4 C 19,4 C 87 % 1011,0 hPa 0,0 l/m 0 min 0 min 0 W/m 12,9 km/h (3 Bft) 95,74 %
28.08.2019 05:22 20,8 C 19,4 C 19,4 C 87 % 1011,0 hPa 0,0 l/m 0 min 0 min 0 W/m 9,7 km/h (2 Bft) 97,83 %
28.08.2019 05:24 20,8 C 19,4 C 19,4 C 87 % 1011,0 hPa 0,0 l/m 0 min 0 min 0 W/m 6,4 km/h (2 Bft) 97,87 %
28.08.2019 05:26 20,8 C 19,4 C 19,4 C 87 % 1010,9 hPa 0,0 l/m 0 min 0 min 0 W/m 9,7 km/h (2 Bft) 95,74 %
28.08.2019 05:28 20,7 C 19,4 C 19,4 C 87 % 1010,9 hPa 0,0 l/m 0 min 0 min 0 W/m 6,4 km/h (2 Bft) 97,87 %
28.08.2019 05:30 20,7 C 19,4 C 19,4 C 88 % 1010,9 hPa 0,0 l/m 0 min 0 min 0 W/m 12,9 km/h (3 Bft) 97,87 %
28.08.2019 05:32 20,7 C 19,4 C 19,4 C 88 % 1010,9 hPa 0,0 l/m 0 min 0 min 0 W/m 6,4 km/h (2 Bft) 97,87 %
28.08.2019 05:34 20,7 C 19,4 C 19,4 C 88 % 1010,9 hPa 0,0 l/m 0 min 0 min 0 W/m 6,4 km/h (2 Bft) 97,83 %
28.08.2019 05:36 20,7 C 19,4 C 19,4 C 88 % 1011,0 hPa 0,0 l/m 0 min 0 min 0 W/m 6,4 km/h (2 Bft) 97,87 %
28.08.2019 05:38 20,7 C 19,4 C 19,4 C 88 % 1011,0 hPa 0,0 l/m 0 min 0 min 0 W/m 3,2 km/h (1 Bft) 95,74 %
28.08.2019 05:40 20,6 C 19,4 C 19,4 C 88 % 1010,9 hPa 0,0 l/m 0 min 0 min 0 W/m 9,7 km/h (2 Bft) 97,87 %
28.08.2019 05:42 20,6 C 19,4 C 19,4 C 88 % 1010,9 hPa 0,0 l/m 0 min 0 min 0 W/m 3,2 km/h (1 Bft) 95,74 %
28.08.2019 05:44 20,6 C 19,4 C 19,4 C 88 % 1010,9 hPa 0,0 l/m 0 min 0 min 0 W/m 6,4 km/h (2 Bft) 97,87 %
28.08.2019 05:46 20,6 C 19,4 C 19,4 C 88 % 1011,0 hPa 0,0 l/m 0 min 0 min 0 W/m 3,2 km/h (1 Bft) 97,83 %
28.08.2019 05:48 20,6 C 19,4 C 19,4 C 88 % 1010,9 hPa 0,0 l/m 0 min 0 min 0 W/m 6,4 km/h (2 Bft) 97,87 %
28.08.2019 05:50 20,6 C 19,4 C 19,4 C 88 % 1011,0 hPa 0,0 l/m 0 min 0 min 0 W/m 9,7 km/h (2 Bft) 95,74 %
28.08.2019 05:52 20,6 C 19,4 C 19,4 C 88 % 1011,0 hPa 0,0 l/m 0 min 0 min 0 W/m 6,4 km/h (2 Bft) 95,74 %
28.08.2019 05:54 20,6 C 19,4 C 19,4 C 88 % 1011,0 hPa 0,0 l/m 0 min 0 min 0 W/m 6,4 km/h (2 Bft) 95,74 %
28.08.2019 05:56 20,6 C 19,4 C 19,4 C 88 % 1011,0 hPa 0,0 l/m 0 min 0 min 0 W/m 6,4 km/h (2 Bft) 95,65 %
28.08.2019 05:58 20,6 C 19,4 C 19,4 C 88 % 1011,0 hPa 0,0 l/m 0 min 0 min 0 W/m 6,4 km/h (2 Bft) 97,87 %
28.08.2019 06:00 20,6 C 19,4 C 19,4 C 88 % 1011,0 hPa 0,0 l/m 0 min 0 min 0 W/m 3,2 km/h (1 Bft) 93,62 %
28.08.2019 06:02 20,6 C 19,4 C 19,4 C 88 % 1011,1 hPa 0,0 l/m 0 min 0 min 0 W/m 3,2 km/h (1 Bft) 95,74 %
28.08.2019 06:04 20,6 C 19,4 C 19,4 C 89 % 1011,2 hPa 0,0 l/m 0 min 0 min 0 W/m 3,2 km/h (1 Bft) 97,87 %
28.08.2019 06:08 20,5 C 19,4 C 19,4 C 89 % 1011,3 hPa 0,0 l/m 0 min 0 min 0 W/m 6,4 km/h (2 Bft) 93,55 %
28.08.2019 06:10 20,5 C 19,4 C 19,4 C 89 % 1011,2 hPa 0,0 l/m 0 min 0 min 0 W/m 6,4 km/h (2 Bft) 91,49 %
28.08.2019 06:12 20,5 C 19,4 C 19,4 C 89 % 1011,2 hPa 0,0 l/m 0 min 0 min 0 W/m 3,2 km/h (1 Bft) 93,62 %
28.08.2019 06:14 20,5 C 19,4 C 18,9 C 89 % 1011,2 hPa 0,0 l/m 0 min 0 min 0 W/m 3,2 km/h (1 Bft) 95,74 %
28.08.2019 06:16 20,5 C 19,4 C 18,9 C 89 % 1011,2 hPa 0,0 l/m 0 min 0 min 0 W/m 6,4 km/h (2 Bft) 95,74 %
28.08.2019 06:18 20,5 C 19,4 C 18,9 C 89 % 1011,2 hPa 0,0 l/m 0 min 0 min 0 W/m 6,4 km/h (2 Bft) 95,74 %
28.08.2019 06:20 20,5 C 18,9 C 18,9 C 89 % 1011,1 hPa 0,0 l/m 0 min 0 min 0 W/m 3,2 km/h (1 Bft) 95,65 %
28.08.2019 06:22 20,4 C 18,9 C 18,9 C 89 % 1011,1 hPa 0,0 l/m 0 min 0 min 0 W/m 6,4 km/h (2 Bft) 95,74 %
28.08.2019 06:24 20,4 C 18,9 C 18,9 C 89 % 1011,1 hPa 0,0 l/m 0 min 0 min 0 W/m 3,2 km/h (1 Bft) 93,62 %
28.08.2019 06:26 20,4 C 18,9 C 18,9 C 89 % 1011,1 hPa 0,0 l/m 0 min 0 min 0 W/m 6,4 km/h (2 Bft) 93,62 %
28.08.2019 06:28 20,4 C 18,9 C 18,9 C 89 % 1011,1 hPa 0,0 l/m 0 min 0 min 0 W/m 3,2 km/h (1 Bft) 95,74 %
28.08.2019 06:30 20,4 C 18,9 C 18,9 C 89 % 1011,1 hPa 0,0 l/m 0 min 0 min 0 W/m 3,2 km/h (1 Bft) 95,74 %
28.08.2019 06:32 20,4 C 18,9 C 18,9 C 89 % 1011,1 hPa 0,0 l/m 0 min 0 min 0 W/m 6,4 km/h (2 Bft) 95,65 %
28.08.2019 06:34 20,3 C 18,9 C 18,9 C 89 % 1011,2 hPa 0,0 l/m 0 min 0 min 0 W/m 6,4 km/h (2 Bft) 95,74 %
28.08.2019 06:36 20,3 C 18,9 C 18,9 C 89 % 1011,1 hPa 0,0 l/m 0 min 0 min 0 W/m 6,4 km/h (2 Bft) 95,74 %
28.08.2019 06:38 20,3 C 18,9 C 18,9 C 89 % 1011,1 hPa 0,0 l/m 0 min 0 min 0 W/m 3,2 km/h (1 Bft) 95,74 %
28.08.2019 06:40 20,3 C 18,9 C 18,9 C 89 % 1011,2 hPa 0,0 l/m 0 min 0 min 0 W/m 3,2 km/h (1 Bft) 95,74 %
28.08.2019 06:42 20,3 C 18,9 C 18,9 C 89 % 1011,3 hPa 0,0 l/m 0 min 0 min 0 W/m 6,4 km/h (2 Bft) 95,74 %
28.08.2019 06:44 20,3 C 18,9 C 18,9 C 89 % 1011,3 hPa 0,0 l/m 0 min 0 min 0 W/m 3,2 km/h (1 Bft) 95,65 %
28.08.2019 06:46 20,2 C 18,9 C 18,9 C 89 % 1011,4 hPa 0,0 l/m 0 min 0 min 0 W/m 6,4 km/h (2 Bft) 95,74 %
28.08.2019 06:48 20,2 C 18,9 C 18,9 C 89 % 1011,3 hPa 0,0 l/m 0 min 0 min 0 W/m 6,4 km/h (2 Bft) 95,74 %
28.08.2019 06:50 20,2 C 18,9 C 18,9 C 89 % 1011,4 hPa 0,0 l/m 0 min 0 min 0 W/m 3,2 km/h (1 Bft) 95,74 %
28.08.2019 06:52 20,2 C 18,9 C 18,9 C 89 % 1011,4 hPa 0,0 l/m 0 min 0 min 4 W/m 6,4 km/h (2 Bft) 91,49 %
28.08.2019 06:54 20,2 C 18,9 C 18,9 C 89 % 1011,5 hPa 0,0 l/m 0 min 0 min 5 W/m 3,2 km/h (1 Bft) 95,65 %
28.08.2019 06:56 20,2 C 18,9 C 18,9 C 89 % 1011,4 hPa 0,0 l/m 0 min 0 min 5 W/m 3,2 km/h (1 Bft) 91,49 %
28.08.2019 06:58 20,1 C 18,9 C 18,9 C 89 % 1011,6 hPa 0,0 l/m 0 min 0 min 7 W/m 6,4 km/h (2 Bft) 97,87 %
28.08.2019 07:00 20,1 C 18,9 C 18,9 C 89 % 1011,6 hPa 0,0 l/m 0 min 0 min 7 W/m 3,2 km/h (1 Bft) 100,00 %
28.08.2019 07:02 20,1 C 18,9 C 18,9 C 89 % 1011,6 hPa 0,0 l/m 0 min 0 min 7 W/m 6,4 km/h (2 Bft) 100,00 %
28.08.2019 07:04 20,1 C 18,9 C 18,9 C 90 % 1011,7 hPa 0,0 l/m 0 min 0 min 9 W/m 3,2 km/h (1 Bft) 100,00 %
28.08.2019 07:06 20,1 C 18,9 C 18,9 C 90 % 1011,6 hPa 0,0 l/m 0 min 0 min 9 W/m 3,2 km/h (1 Bft) 97,83 %
28.08.2019 07:08 20,1 C 18,9 C 18,9 C 90 % 1011,6 hPa 0,0 l/m 0 min 0 min 11 W/m 9,7 km/h (2 Bft) 100,00 %
28.08.2019 07:10 20,1 C 18,9 C 18,9 C 90 % 1011,7 hPa 0,0 l/m 0 min 0 min 11 W/m 6,4 km/h (2 Bft) 100,00 %
28.08.2019 07:12 20,1 C 18,9 C 18,9 C 90 % 1011,7 hPa 0,0 l/m 0 min 0 min 11 W/m 3,2 km/h (1 Bft) 97,87 %
28.08.2019 07:14 20,1 C 18,9 C 18,9 C 90 % 1011,7 hPa 0,0 l/m 0 min 0 min 11 W/m 3,2 km/h (1 Bft) 100,00 %
28.08.2019 07:16 20,0 C 18,9 C 18,9 C 90 % 1011,6 hPa 0,0 l/m 0 min 0 min 11 W/m 3,2 km/h (1 Bft) 97,83 %
28.08.2019 07:18 20,0 C 18,9 C 18,9 C 90 % 1011,6 hPa 0,0 l/m 0 min 0 min 12 W/m 3,2 km/h (1 Bft) 97,87 %
28.08.2019 07:20 20,0 C 18,9 C 18,9 C 90 % 1011,6 hPa 0,0 l/m 0 min 0 min 12 W/m 6,4 km/h (2 Bft) 100,00 %
28.08.2019 07:22 20,0 C 18,9 C 18,9 C 90 % 1011,7 hPa 0,0 l/m 0 min 0 min 14 W/m 3,2 km/h (1 Bft) 100,00 %
28.08.2019 07:24 20,0 C 18,9 C 18,9 C 90 % 1011,8 hPa 0,0 l/m 0 min 0 min 14 W/m 3,2 km/h (1 Bft) 100,00 %
28.08.2019 07:26 20,0 C 18,9 C 18,9 C 90 % 1011,7 hPa 0,0 l/m 0 min 0 min 16 W/m 3,2 km/h (1 Bft) 100,00 %
28.08.2019 07:28 20,0 C 18,9 C 18,9 C 90 % 1011,8 hPa 0,0 l/m 0 min 0 min 17 W/m 3,2 km/h (1 Bft) 100,00 %
28.08.2019 07:30 19,9 C 18,9 C 18,9 C 90 % 1011,8 hPa 0,0 l/m 0 min 0 min 18 W/m 6,4 km/h (2 Bft) 100,00 %
28.08.2019 07:32 19,9 C 18,9 C 18,9 C 90 % 1011,8 hPa 0,0 l/m 0 min 0 min 19 W/m 3,2 km/h (1 Bft) 100,00 %
28.08.2019 07:34 19,9 C 18,9 C 18,9 C 90 % 1011,8 hPa 0,0 l/m 0 min 0 min 21 W/m 6,4 km/h (2 Bft) 100,00 %
28.08.2019 07:36 19,9 C 18,9 C 18,9 C 90 % 1011,8 hPa 0,0 l/m 0 min 0 min 23 W/m 3,2 km/h (1 Bft) 95,74 %
28.08.2019 07:38 19,9 C 18,9 C 18,9 C 90 % 1011,8 hPa 0,0 l/m 0 min 0 min 26 W/m 9,7 km/h (2 Bft) 100,00 %
28.08.2019 07:40 19,9 C 18,9 C 18,9 C 90 % 1011,8 hPa 0,0 l/m 0 min 0 min 31 W/m 3,2 km/h (1 Bft) 100,00 %
28.08.2019 07:42 19,9 C 18,9 C 18,9 C 90 % 1011,9 hPa 0,0 l/m 0 min 0 min 33 W/m 9,7 km/h (2 Bft) 100,00 %
28.08.2019 07:44 19,9 C 19,4 C 18,9 C 90 % 1013,9 hPa 0,0 l/m 0 min 0 min 34 W/m 0,0 km/h (0 Bft) 100,00 %
28.08.2019 07:46 19,9 C 19,4 C 18,9 C 90 % 1013,9 hPa 0,0 l/m 0 min 0 min 35 W/m 6,4 km/h (2 Bft) 100,00 %
28.08.2019 07:48 19,9 C 19,4 C 18,9 C 90 % 1013,9 hPa 0,0 l/m 0 min 0 min 38 W/m 9,7 km/h (2 Bft) 93,62 %
28.08.2019 07:50 19,9 C 19,4 C 18,9 C 90 % 1013,9 hPa 0,0 l/m 0 min 0 min 40 W/m 0,0 km/h (0 Bft) 95,74 %
28.08.2019 07:52 19,9 C 19,4 C 18,9 C 90 % 1013,8 hPa 0,0 l/m 0 min 0 min 40 W/m 3,2 km/h (1 Bft) 100,00 %
28.08.2019 07:54 19,9 C 19,4 C 19,4 C 90 % 1013,8 hPa 0,0 l/m 0 min 0 min 39 W/m 3,2 km/h (1 Bft) 97,83 %
28.08.2019 07:56 19,9 C 19,4 C 19,4 C 91 % 1013,8 hPa 0,0 l/m 0 min 0 min 37 W/m 0,0 km/h (0 Bft) 97,87 %
28.08.2019 07:58 19,9 C 19,4 C 19,4 C 91 % 1013,8 hPa 0,0 l/m 0 min 0 min 37 W/m 3,2 km/h (1 Bft) 97,87 %
28.08.2019 08:00 19,9 C 19,4 C 19,4 C 91 % 1013,7 hPa 0,0 l/m 0 min 0 min 38 W/m 3,2 km/h (1 Bft) 95,74 %
28.08.2019 08:02 19,9 C 19,4 C 19,4 C 91 % 1013,7 hPa 0,0 l/m 0 min 0 min 39 W/m 6,4 km/h (2 Bft) 95,74 %
28.08.2019 08:04 19,9 C 19,4 C 19,4 C 91 % 1013,7 hPa 0,0 l/m 0 min 0 min 39 W/m 3,2 km/h (1 Bft) 95,74 %
28.08.2019 08:06 19,9 C 20,0 C 19,4 C 91 % 1013,7 hPa 0,0 l/m 0 min 0 min 37 W/m 6,4 km/h (2 Bft) 97,83 %
28.08.2019 08:08 20,0 C 20,0 C 19,4 C 91 % 1013,8 hPa 0,0 l/m 0 min 0 min 37 W/m 9,7 km/h (2 Bft) 95,74 %
28.08.2019 08:10 20,0 C 20,0 C 19,4 C 91 % 1013,8 hPa 0,0 l/m 0 min 0 min 37 W/m 3,2 km/h (1 Bft) 97,87 %
28.08.2019 08:12 20,0 C 20,0 C 19,4 C 91 % 1013,7 hPa 0,0 l/m 0 min 0 min 36 W/m 0,0 km/h (0 Bft) 97,87 %
28.08.2019 08:14 20,0 C 20,0 C 19,4 C 91 % 1013,7 hPa 0,0 l/m 0 min 0 min 35 W/m 9,7 km/h (2 Bft) 95,74 %
28.08.2019 08:16 20,0 C 20,0 C 19,4 C 91 % 1013,7 hPa 0,0 l/m 0 min 0 min 35 W/m 3,2 km/h (1 Bft) 97,83 %
28.08.2019 08:18 20,0 C 20,0 C 19,4 C 91 % 1013,7 hPa 0,0 l/m 0 min 0 min 35 W/m 3,2 km/h (1 Bft) 97,87 %
28.08.2019 08:20 20,1 C 20,0 C 19,4 C 91 % 1013,7 hPa 0,0 l/m 0 min 0 min 37 W/m 3,2 km/h (1 Bft) 97,87 %
28.08.2019 08:22 20,1 C 20,0 C 19,4 C 91 % 1013,7 hPa 0,0 l/m 0 min 0 min 37 W/m 6,4 km/h (2 Bft) 97,87 %
28.08.2019 08:24 20,1 C 20,0 C 19,4 C 91 % 1013,7 hPa 0,0 l/m 0 min 0 min 38 W/m 3,2 km/h (1 Bft) 97,87 %
28.08.2019 08:26 20,1 C 20,0 C 19,4 C 91 % 1013,7 hPa 0,0 l/m 0 min 0 min 41 W/m 6,4 km/h (2 Bft) 93,62 %
28.08.2019 08:28 20,1 C 20,0 C 19,4 C 91 % 1013,7 hPa 0,0 l/m 0 min 0 min 42 W/m 3,2 km/h (1 Bft) 97,83 %
28.08.2019 08:30 20,1 C 20,0 C 19,4 C 91 % 1013,7 hPa 0,0 l/m 0 min 0 min 41 W/m 3,2 km/h (1 Bft) 95,74 %
28.08.2019 08:32 20,1 C 20,0 C 19,4 C 91 % 1013,7 hPa 0,0 l/m 0 min 0 min 40 W/m 3,2 km/h (1 Bft) 95,74 %
28.08.2019 08:34 20,2 C 20,0 C 19,4 C 91 % 1013,7 hPa 0,0 l/m 0 min 0 min 39 W/m 6,4 km/h (2 Bft) 97,87 %
28.08.2019 08:36 20,2 C 20,0 C 19,4 C 90 % 1013,7 hPa 0,0 l/m 0 min 0 min 39 W/m 6,4 km/h (2 Bft) 95,74 %
28.08.2019 08:38 20,2 C 20,0 C 19,4 C 90 % 1013,7 hPa 0,0 l/m 0 min 0 min 40 W/m 6,4 km/h (2 Bft) 100,00 %
28.08.2019 08:40 20,2 C 20,0 C 19,4 C 90 % 1013,7 hPa 0,0 l/m 0 min 0 min 45 W/m 3,2 km/h (1 Bft) 100,00 %
28.08.2019 08:42 20,2 C 20,0 C 19,4 C 90 % 1013,8 hPa 0,0 l/m 0 min 0 min 53 W/m 3,2 km/h (1 Bft) 100,00 %
28.08.2019 08:44 20,2 C 20,6 C 20,0 C 90 % 1013,7 hPa 0,0 l/m 0 min 0 min 54 W/m 3,2 km/h (1 Bft) 95,74 %
28.08.2019 08:46 20,2 C 20,6 C 20,0 C 90 % 1013,7 hPa 0,0 l/m 0 min 0 min 56 W/m 6,4 km/h (2 Bft) 100,00 %
28.08.2019 08:48 20,3 C 20,6 C 20,0 C 90 % 1013,7 hPa 0,0 l/m 0 min 0 min 65 W/m 3,2 km/h (1 Bft) 100,00 %
28.08.2019 08:50 20,3 C 20,6 C 20,0 C 90 % 1013,7 hPa 0,0 l/m 0 min 0 min 73 W/m 3,2 km/h (1 Bft) 100,00 %
28.08.2019 08:52 20,3 C 21,1 C 20,0 C 90 % 1013,8 hPa 0,0 l/m 0 min 0 min 85 W/m 3,2 km/h (1 Bft) 95,65 %
28.08.2019 08:54 20,4 C 21,1 C 20,0 C 90 % 1013,9 hPa 0,0 l/m 0 min 0 min 109 W/m 6,4 km/h (2 Bft) 97,87 %
28.08.2019 08:56 20,4 C 21,1 C 20,6 C 90 % 1013,9 hPa 0,0 l/m 0 min 0 min 78 W/m 3,2 km/h (1 Bft) 97,87 %
28.08.2019 08:58 20,4 C 21,1 C 20,6 C 90 % 1013,7 hPa 0,0 l/m 0 min 0 min 58 W/m 0,0 km/h (0 Bft) 100,00 %
28.08.2019 09:00 20,4 C 21,1 C 20,6 C 90 % 1013,9 hPa 0,0 l/m 0 min 0 min 57 W/m 3,2 km/h (1 Bft) 100,00 %
28.08.2019 09:02 20,5 C 21,1 C 20,6 C 90 % 1013,9 hPa 0,0 l/m 0 min 0 min 61 W/m 9,7 km/h (2 Bft) 95,74 %
28.08.2019 09:04 20,6 C 21,1 C 20,6 C 90 % 1013,9 hPa 0,0 l/m 0 min 0 min 64 W/m 6,4 km/h (2 Bft) 97,83 %
28.08.2019 09:06 20,6 C 21,7 C 20,6 C 90 % 1014,0 hPa 0,0 l/m 0 min 0 min 109 W/m 9,7 km/h (2 Bft) 95,74 %
28.08.2019 09:08 20,6 C 21,7 C 20,6 C 90 % 1014,0 hPa 0,0 l/m 0 min 0 min 101 W/m 9,7 km/h (2 Bft) 97,87 %
28.08.2019 09:10 20,7 C 22,2 C 20,6 C 90 % 1014,0 hPa 0,0 l/m 0 min 0 min 123 W/m 6,4 km/h (2 Bft) 97,87 %
28.08.2019 09:12 20,7 C 22,8 C 21,1 C 90 % 1013,9 hPa 0,0 l/m 0 min 0 min 165 W/m 3,2 km/h (1 Bft) 95,74 %
28.08.2019 09:14 20,8 C 23,3 C 21,1 C 90 % 1013,9 hPa 0,0 l/m 0 min 0 min 155 W/m 0,0 km/h (0 Bft) 97,87 %
28.08.2019 09:16 20,8 C 23,3 C 21,1 C 90 % 1013,9 hPa 0,0 l/m 0 min 0 min 146 W/m 3,2 km/h (1 Bft) 97,83 %
28.08.2019 09:18 20,9 C 22,8 C 21,1 C 90 % 1014,0 hPa 0,0 l/m 0 min 0 min 111 W/m 6,4 km/h (2 Bft) 97,87 %
28.08.2019 09:20 21,0 C 24,4 C 21,1 C 90 % 1014,0 hPa 0,0 l/m 0 min 0 min 187 W/m 0,0 km/h (0 Bft) 97,87 %
28.08.2019 09:22 21,1 C 25,6 C 21,7 C 89 % 1013,9 hPa 0,0 l/m 2 min 0 min 342 W/m 3,2 km/h (1 Bft) 97,87 %
28.08.2019 09:24 21,1 C 26,1 C 21,7 C 90 % 1013,9 hPa 0,0 l/m 2 min 0 min 270 W/m 0,0 km/h (0 Bft) 95,74 %
28.08.2019 09:26 21,2 C 25,0 C 22,2 C 90 % 1014,0 hPa 0,0 l/m 0 min 0 min 190 W/m 6,4 km/h (2 Bft) 95,65 %
28.08.2019 09:28 21,3 C 25,0 C 22,8 C 89 % 1014,0 hPa 0,0 l/m 0 min 0 min 157 W/m 6,4 km/h (2 Bft) 95,74 %
28.08.2019 09:30 21,4 C 24,4 C 22,2 C 89 % 1013,9 hPa 0,0 l/m 0 min 0 min 112 W/m 6,4 km/h (2 Bft) 95,74 %
28.08.2019 09:32 21,5 C 23,9 C 22,8 C 89 % 1013,9 hPa 0,0 l/m 0 min 0 min 116 W/m 6,4 km/h (2 Bft) 95,74 %
28.08.2019 09:34 21,6 C 25,6 C 24,4 C 88 % 1014,0 hPa 0,0 l/m 2 min 0 min 304 W/m 0,0 km/h (0 Bft) 93,62 %
28.08.2019 09:36 21,7 C 26,7 C 25,6 C 88 % 1013,9 hPa 0,0 l/m 2 min 0 min 378 W/m 6,4 km/h (2 Bft) 89,36 %
28.08.2019 09:38 21,8 C 27,2 C 25,6 C 87 % 1014,0 hPa 0,0 l/m 2 min 0 min 379 W/m 6,4 km/h (2 Bft) 93,48 %
28.08.2019 09:40 21,9 C 28,3 C 26,7 C 87 % 1013,9 hPa 0,0 l/m 2 min 0 min 383 W/m 3,2 km/h (1 Bft) 93,62 %
28.08.2019 09:42 22,1 C 28,9 C 27,8 C 87 % 1013,9 hPa 0,0 l/m 2 min 0 min 387 W/m 6,4 km/h (2 Bft) 93,62 %
28.08.2019 09:44 22,3 C 28,3 C 27,8 C 85 % 1014,0 hPa 0,0 l/m 2 min 0 min 391 W/m 16,1 km/h (3 Bft) 93,62 %
28.08.2019 09:46 22,5 C 28,9 C 28,3 C 84 % 1013,9 hPa 0,0 l/m 2 min 0 min 399 W/m 6,4 km/h (2 Bft) 95,74 %
28.08.2019 09:48 22,7 C 28,9 C 28,3 C 82 % 1014,0 hPa 0,0 l/m 2 min 0 min 405 W/m 9,7 km/h (2 Bft) 95,74 %
28.08.2019 09:50 22,9 C 28,9 C 28,3 C 81 % 1014,0 hPa 0,0 l/m 2 min 0 min 411 W/m 9,7 km/h (2 Bft) 95,65 %
28.08.2019 09:52 23,2 C 28,9 C 28,9 C 79 % 1014,0 hPa 0,0 l/m 2 min 0 min 419 W/m 12,9 km/h (3 Bft) 95,74 %
28.08.2019 09:54 23,4 C 28,9 C 28,3 C 78 % 1014,2 hPa 0,0 l/m 2 min 0 min 424 W/m 9,7 km/h (2 Bft) 95,74 %
28.08.2019 09:56 23,7 C 28,3 C 27,8 C 77 % 1014,1 hPa 0,0 l/m 2 min 0 min 427 W/m 16,1 km/h (3 Bft) 95,74 %
28.08.2019 09:58 23,8 C 28,3 C 28,3 C 76 % 1014,0 hPa 0,0 l/m 2 min 0 min 434 W/m 12,9 km/h (3 Bft) 95,74 %
28.08.2019 10:00 24,1 C 28,9 C 28,9 C 74 % 1014,0 hPa 0,0 l/m 2 min 0 min 440 W/m 16,1 km/h (3 Bft) 97,87 %
28.08.2019 10:02 24,3 C 29,4 C 29,4 C 74 % 1014,0 hPa 0,0 l/m 2 min 0 min 446 W/m 6,4 km/h (2 Bft) 95,65 %
28.08.2019 10:04 24,4 C 30,0 C 29,4 C 73 % 1014,0 hPa 0,0 l/m 2 min 0 min 455 W/m 6,4 km/h (2 Bft) 95,74 %
28.08.2019 10:06 24,7 C 30,0 C 29,4 C 72 % 1014,0 hPa 0,0 l/m 2 min 0 min 462 W/m 3,2 km/h (1 Bft) 97,87 %
28.08.2019 10:08 24,9 C 30,0 C 30,0 C 72 % 1014,0 hPa 0,0 l/m 2 min 0 min 465 W/m 3,2 km/h (1 Bft) 97,87 %
28.08.2019 10:10 25,0 C 30,6 C 30,0 C 71 % 1014,0 hPa 0,0 l/m 2 min 0 min 471 W/m 12,9 km/h (3 Bft) 97,87 %
28.08.2019 10:12 25,1 C 30,6 C 30,0 C 69 % 1014,0 hPa 0,0 l/m 2 min 0 min 478 W/m 0,0 km/h (0 Bft) 97,87 %
28.08.2019 10:14 25,3 C 31,1 C 30,6 C 70 % 1014,1 hPa 0,0 l/m 2 min 0 min 483 W/m 6,4 km/h (2 Bft) 95,65 %
28.08.2019 10:16 25,6 C 31,7 C 31,1 C 69 % 1013,9 hPa 0,0 l/m 2 min 0 min 487 W/m 0,0 km/h (0 Bft) 100,00 %
28.08.2019 10:18 25,7 C 31,7 C 31,1 C 69 % 1014,1 hPa 0,0 l/m 2 min 0 min 493 W/m 6,4 km/h (2 Bft) 100,00 %
28.08.2019 10:20 25,9 C 32,2 C 31,7 C 68 % 1014,2 hPa 0,0 l/m 2 min 0 min 501 W/m 3,2 km/h (1 Bft) 100,00 %
28.08.2019 10:22 26,1 C 32,2 C 31,7 C 67 % 1014,2 hPa 0,0 l/m 2 min 0 min 503 W/m 6,4 km/h (2 Bft) 100,00 %
28.08.2019 10:24 26,2 C 32,2 C 32,2 C 65 % 1014,1 hPa 0,0 l/m 2 min 0 min 510 W/m 12,9 km/h (3 Bft) 95,74 %
28.08.2019 10:26 26,4 C 31,7 C 31,7 C 64 % 1014,0 hPa 0,0 l/m 2 min 0 min 518 W/m 9,7 km/h (2 Bft) 100,00 %
28.08.2019 10:28 26,6 C 32,2 C 31,7 C 64 % 1014,1 hPa 0,0 l/m 2 min 0 min 527 W/m 6,4 km/h (2 Bft) 97,87 %
28.08.2019 10:30 26,8 C 31,7 C 31,1 C 63 % 1014,1 hPa 0,0 l/m 2 min 0 min 531 W/m 12,9 km/h (3 Bft) 95,74 %
28.08.2019 10:32 26,9 C 31,7 C 31,1 C 63 % 1014,1 hPa 0,0 l/m 2 min 0 min 536 W/m 3,2 km/h (1 Bft) 96,23 %
28.08.2019 10:34 27,1 C 32,2 C 31,7 C 62 % 1014,1 hPa 0,0 l/m 2 min 0 min 541 W/m 9,7 km/h (2 Bft) 97,87 %
28.08.2019 10:36 27,2 C 32,8 C 32,2 C 63 % 1014,0 hPa 0,0 l/m 2 min 0 min 550 W/m 9,7 km/h (2 Bft) 97,87 %
28.08.2019 10:38 27,4 C 32,2 C 32,2 C 62 % 1014,1 hPa 0,0 l/m 2 min 0 min 557 W/m 16,1 km/h (3 Bft) 97,87 %
28.08.2019 10:40 27,5 C 32,8 C 33,3 C 61 % 1014,1 hPa 0,0 l/m 2 min 0 min 561 W/m 9,7 km/h (2 Bft) 97,87 %
28.08.2019 10:42 27,7 C 32,8 C 32,8 C 61 % 1014,2 hPa 0,0 l/m 2 min 0 min 565 W/m 6,4 km/h (2 Bft) 93,48 %
28.08.2019 10:44 27,8 C 32,2 C 32,2 C 60 % 1014,1 hPa 0,0 l/m 2 min 0 min 570 W/m 16,1 km/h (3 Bft) 97,87 %
28.08.2019 10:46 27,9 C 32,8 C 32,2 C 61 % 1014,2 hPa 0,0 l/m 2 min 0 min 573 W/m 3,2 km/h (1 Bft) 95,74 %
28.08.2019 10:48 27,9 C 32,8 C 32,8 C 60 % 1014,1 hPa 0,0 l/m 2 min 0 min 578 W/m 6,4 km/h (2 Bft) 97,87 %
28.08.2019 10:50 28,1 C 32,2 C 32,8 C 61 % 1014,2 hPa 0,0 l/m 2 min 0 min 583 W/m 3,2 km/h (1 Bft) 97,87 %
28.08.2019 10:52 28,1 C 32,2 C 32,2 C 60 % 1014,2 hPa 0,0 l/m 2 min 0 min 588 W/m 9,7 km/h (2 Bft) 97,87 %
28.08.2019 10:54 28,2 C 32,2 C 32,2 C 60 % 1014,2 hPa 0,0 l/m 2 min 0 min 593 W/m 9,7 km/h (2 Bft) 97,83 %
28.08.2019 10:56 28,2 C 32,2 C 32,8 C 60 % 1014,2 hPa 0,0 l/m 2 min 0 min 596 W/m 12,9 km/h (3 Bft) 97,87 %
28.08.2019 10:58 28,3 C 32,2 C 32,2 C 60 % 1014,2 hPa 0,0 l/m 2 min 0 min 599 W/m 6,4 km/h (2 Bft) 97,87 %
28.08.2019 11:00 28,3 C 32,2 C 32,8 C 60 % 1014,2 hPa 0,0 l/m 2 min 0 min 600 W/m 9,7 km/h (2 Bft) 97,87 %
28.08.2019 11:02 28,3 C 31,1 C 31,1 C 59 % 1014,2 hPa 0,0 l/m 2 min 0 min 606 W/m 12,9 km/h (3 Bft) 91,49 %
28.08.2019 11:04 28,3 C 32,2 C 32,2 C 61 % 1014,2 hPa 0,0 l/m 2 min 0 min 611 W/m 3,2 km/h (1 Bft) 93,62 %
28.08.2019 11:06 28,4 C 32,8 C 31,7 C 61 % 1014,2 hPa 0,0 l/m 2 min 0 min 613 W/m 3,2 km/h (1 Bft) 97,83 %
28.08.2019 11:08 28,5 C 33,3 C 31,1 C 60 % 1014,2 hPa 0,0 l/m 2 min 0 min 617 W/m 12,9 km/h (3 Bft) 97,87 %
28.08.2019 11:10 28,6 C 33,9 C 31,1 C 61 % 1014,2 hPa 0,0 l/m 2 min 0 min 626 W/m 0,0 km/h (0 Bft) 97,87 %
28.08.2019 11:12 28,7 C 33,3 C 30,0 C 60 % 1014,2 hPa 0,0 l/m 2 min 0 min 632 W/m 9,7 km/h (2 Bft) 100,00 %
28.08.2019 11:14 28,8 C 33,9 C 30,0 C 60 % 1014,2 hPa 0,0 l/m 2 min 0 min 642 W/m 6,4 km/h (2 Bft) 100,00 %
28.08.2019 11:16 28,9 C 33,9 C 29,4 C 59 % 1014,2 hPa 0,0 l/m 2 min 0 min 646 W/m 19,3 km/h (3 Bft) 97,83 %
28.08.2019 11:18 29,1 C 34,4 C 30,0 C 59 % 1014,3 hPa 0,0 l/m 2 min 0 min 645 W/m 9,7 km/h (2 Bft) 100,00 %
28.08.2019 11:20 29,2 C 34,4 C 29,4 C 59 % 1014,2 hPa 0,0 l/m 2 min 0 min 653 W/m 6,4 km/h (2 Bft) 97,87 %
28.08.2019 11:22 29,2 C 33,9 C 29,4 C 58 % 1014,2 hPa 0,0 l/m 2 min 0 min 667 W/m 9,7 km/h (2 Bft) 100,00 %
28.08.2019 11:24 29,3 C 34,4 C 29,4 C 58 % 1014,3 hPa 0,0 l/m 2 min 0 min 670 W/m 9,7 km/h (2 Bft) 97,87 %
28.08.2019 11:26 29,4 C 35,0 C 29,4 C 59 % 1014,3 hPa 0,0 l/m 2 min 0 min 671 W/m 12,9 km/h (3 Bft) 100,00 %
28.08.2019 11:28 29,6 C 33,9 C 29,4 C 58 % 1014,3 hPa 0,0 l/m 2 min 0 min 636 W/m 6,4 km/h (2 Bft) 100,00 %
28.08.2019 11:30 29,6 C 34,4 C 29,4 C 58 % 1014,3 hPa 0,0 l/m 2 min 0 min 639 W/m 3,2 km/h (1 Bft) 100,00 %
28.08.2019 11:32 29,7 C 34,4 C 29,4 C 57 % 1014,3 hPa 0,0 l/m 2 min 0 min 656 W/m 3,2 km/h (1 Bft) 100,00 %
28.08.2019 11:34 29,8 C 34,4 C 29,4 C 57 % 1014,3 hPa 0,0 l/m 2 min 0 min 679 W/m 9,7 km/h (2 Bft) 100,00 %
28.08.2019 11:36 29,8 C 34,4 C 29,4 C 58 % 1014,3 hPa 0,0 l/m 2 min 0 min 639 W/m 6,4 km/h (2 Bft) 100,00 %
28.08.2019 11:38 29,9 C 34,4 C 29,4 C 57 % 1014,2 hPa 0,0 l/m 2 min 0 min 613 W/m 9,7 km/h (2 Bft) 100,00 %
28.08.2019 11:40 29,9 C 33,9 C 29,4 C 57 % 1014,3 hPa 0,0 l/m 2 min 0 min 586 W/m 12,9 km/h (3 Bft) 97,83 %
28.08.2019 11:42 30,0 C 33,9 C 29,4 C 59 % 1014,3 hPa 0,0 l/m 2 min 0 min 575 W/m 16,1 km/h (3 Bft) 100,00 %
28.08.2019 11:44 30,0 C 32,8 C 28,9 C 57 % 1014,4 hPa 0,0 l/m 2 min 0 min 554 W/m 6,4 km/h (2 Bft) 100,00 %
28.08.2019 11:46 29,9 C 33,3 C 28,9 C 57 % 1014,3 hPa 0,0 l/m 2 min 0 min 603 W/m 12,9 km/h (3 Bft) 100,00 %
28.08.2019 11:48 29,9 C 33,3 C 28,9 C 58 % 1014,2 hPa 0,0 l/m 2 min 0 min 640 W/m 3,2 km/h (1 Bft) 100,00 %
28.08.2019 11:50 29,9 C 34,4 C 29,4 C 57 % 1014,2 hPa 0,0 l/m 2 min 0 min 676 W/m 9,7 km/h (2 Bft) 97,87 %
28.08.2019 11:52 30,0 C 34,4 C 29,4 C 58 % 1014,3 hPa 0,0 l/m 2 min 0 min 682 W/m 9,7 km/h (2 Bft) 97,83 %
28.08.2019 11:54 30,0 C 34,4 C 29,4 C 57 % 1014,3 hPa 0,0 l/m 2 min 0 min 687 W/m 9,7 km/h (2 Bft) 100,00 %
28.08.2019 11:56 30,1 C 34,4 C 28,9 C 57 % 1014,2 hPa 0,0 l/m 2 min 0 min 696 W/m 9,7 km/h (2 Bft) 97,87 %
28.08.2019 11:58 30,1 C 35,0 C 28,9 C 58 % 1014,2 hPa 0,0 l/m 2 min 0 min 691 W/m 3,2 km/h (1 Bft) 97,87 %
28.08.2019 12:00 30,1 C 34,4 C 28,9 C 57 % 1014,2 hPa 0,0 l/m 2 min 0 min 694 W/m 6,4 km/h (2 Bft) 100,00 %
28.08.2019 12:02 30,1 C 33,9 C 28,9 C 57 % 1014,2 hPa 0,0 l/m 2 min 0 min 693 W/m 3,2 km/h (1 Bft) 100,00 %
28.08.2019 12:04 30,1 C 33,9 C 28,3 C 57 % 1014,2 hPa 0,0 l/m 2 min 0 min 698 W/m 3,2 km/h (1 Bft) 97,83 %
28.08.2019 12:08 30,2 C 35,6 C 28,9 C 58 % 1014,2 hPa 0,0 l/m 4 min 0 min 701 W/m 9,7 km/h (2 Bft) 96,81 %
28.08.2019 12:10 30,2 C 35,0 C 28,9 C 58 % 1014,2 hPa 0,0 l/m 2 min 0 min 717 W/m 9,7 km/h (2 Bft) 97,87 %
28.08.2019 12:12 30,3 C 35,6 C 29,4 C 58 % 1014,2 hPa 0,0 l/m 2 min 0 min 716 W/m 16,1 km/h (3 Bft) 97,87 %
28.08.2019 12:14 30,3 C 35,0 C 29,4 C 57 % 1014,2 hPa 0,0 l/m 2 min 0 min 704 W/m 9,7 km/h (2 Bft) 97,87 %
28.08.2019 12:16 30,4 C 35,6 C 29,4 C 57 % 1014,2 hPa 0,0 l/m 2 min 0 min 701 W/m 6,4 km/h (2 Bft) 97,83 %
28.08.2019 12:18 30,4 C 35,6 C 29,4 C 57 % 1014,2 hPa 0,0 l/m 2 min 0 min 716 W/m 3,2 km/h (1 Bft) 95,74 %
28.08.2019 12:20 30,5 C 35,6 C 29,4 C 57 % 1014,2 hPa 0,0 l/m 2 min 0 min 724 W/m 3,2 km/h (1 Bft) 97,87 %
28.08.2019 12:22 30,6 C 36,1 C 29,4 C 57 % 1014,2 hPa 0,0 l/m 2 min 0 min 728 W/m 3,2 km/h (1 Bft) 97,87 %
28.08.2019 12:24 30,6 C 36,1 C 29,4 C 57 % 1014,1 hPa 0,0 l/m 2 min 0 min 736 W/m 0,0 km/h (0 Bft) 97,87 %
28.08.2019 12:26 30,7 C 35,6 C 29,4 C 57 % 1014,2 hPa 0,0 l/m 2 min 0 min 742 W/m 3,2 km/h (1 Bft) 95,65 %
28.08.2019 12:28 30,7 C 35,0 C 29,4 C 55 % 1014,3 hPa 0,0 l/m 2 min 0 min 739 W/m 16,1 km/h (3 Bft) 97,87 %
28.08.2019 12:30 30,7 C 35,0 C 30,0 C 56 % 1014,3 hPa 0,0 l/m 2 min 0 min 742 W/m 6,4 km/h (2 Bft) 97,87 %
28.08.2019 12:32 30,8 C 36,7 C 30,0 C 57 % 1014,3 hPa 0,0 l/m 2 min 0 min 746 W/m 0,0 km/h (0 Bft) 97,87 %
28.08.2019 12:34 30,9 C 36,7 C 30,0 C 56 % 1014,3 hPa 0,0 l/m 2 min 0 min 772 W/m 6,4 km/h (2 Bft) 97,87 %
28.08.2019 12:36 30,9 C 36,7 C 30,0 C 56 % 1014,3 hPa 0,0 l/m 2 min 0 min 745 W/m 3,2 km/h (1 Bft) 95,74 %
28.08.2019 12:38 30,9 C 35,0 C 30,0 C 55 % 1014,3 hPa 0,0 l/m 2 min 0 min 649 W/m 12,9 km/h (3 Bft) 97,83 %
28.08.2019 12:40 30,9 C 33,9 C 30,0 C 55 % 1014,4 hPa 0,0 l/m 2 min 0 min 616 W/m 9,7 km/h (2 Bft) 97,87 %
28.08.2019 12:42 30,9 C 33,9 C 30,0 C 55 % 1014,2 hPa 0,0 l/m 2 min 0 min 457 W/m 6,4 km/h (2 Bft) 97,87 %
28.08.2019 12:44 30,9 C 33,9 C 30,0 C 55 % 1014,3 hPa 0,0 l/m 2 min 0 min 437 W/m 3,2 km/h (1 Bft) 100,00 %
28.08.2019 12:46 30,8 C 32,8 C 30,0 C 55 % 1014,3 hPa 0,0 l/m 2 min 0 min 480 W/m 12,9 km/h (3 Bft) 100,00 %
28.08.2019 12:48 30,8 C 32,8 C 30,0 C 55 % 1014,3 hPa 0,0 l/m 2 min 0 min 490 W/m 6,4 km/h (2 Bft) 100,00 %
28.08.2019 12:50 30,8 C 32,8 C 30,0 C 55 % 1014,3 hPa 0,0 l/m 2 min 0 min 441 W/m 9,7 km/h (2 Bft) 97,83 %
28.08.2019 12:52 30,8 C 33,3 C 30,0 C 55 % 1014,3 hPa 0,0 l/m 2 min 0 min 459 W/m 12,9 km/h (3 Bft) 97,87 %
28.08.2019 12:54 30,7 C 33,3 C 30,0 C 55 % 1014,2 hPa 0,0 l/m 2 min 0 min 504 W/m 9,7 km/h (2 Bft) 95,74 %
28.08.2019 12:56 30,7 C 32,8 C 30,0 C 55 % 1014,2 hPa 0,0 l/m 2 min 0 min 446 W/m 6,4 km/h (2 Bft) 97,87 %
28.08.2019 12:58 30,7 C 33,3 C 29,4 C 55 % 1014,1 hPa 0,0 l/m 2 min 0 min 393 W/m 12,9 km/h (3 Bft) 97,87 %
28.08.2019 13:00 30,6 C 32,8 C 29,4 C 56 % 1014,1 hPa 0,0 l/m 2 min 0 min 391 W/m 12,9 km/h (3 Bft) 97,83 %
28.08.2019 13:02 30,6 C 31,7 C 28,9 C 55 % 1014,1 hPa 0,0 l/m 2 min 0 min 383 W/m 9,7 km/h (2 Bft) 95,74 %
28.08.2019 13:04 30,5 C 31,1 C 28,9 C 55 % 1014,1 hPa 0,0 l/m 0 min 0 min 338 W/m 16,1 km/h (3 Bft) 97,87 %
28.08.2019 13:06 30,4 C 30,6 C 28,3 C 55 % 1014,1 hPa 0,0 l/m 0 min 0 min 332 W/m 9,7 km/h (2 Bft) 95,74 %
28.08.2019 13:08 30,4 C 31,1 C 28,9 C 55 % 1014,1 hPa 0,0 l/m 2 min 0 min 397 W/m 9,7 km/h (2 Bft) 95,74 %
28.08.2019 13:10 30,4 C 31,1 C 28,9 C 55 % 1014,1 hPa 0,0 l/m 2 min 0 min 432 W/m 12,9 km/h (3 Bft) 97,87 %
28.08.2019 13:12 30,3 C 30,6 C 28,9 C 55 % 1014,1 hPa 0,0 l/m 2 min 0 min 416 W/m 19,3 km/h (3 Bft) 95,65 %
28.08.2019 13:14 30,2 C 31,1 C 28,9 C 56 % 1014,1 hPa 0,0 l/m 2 min 0 min 436 W/m 12,9 km/h (3 Bft) 95,74 %
28.08.2019 13:16 30,2 C 31,7 C 28,9 C 56 % 1014,2 hPa 0,0 l/m 2 min 0 min 552 W/m 9,7 km/h (2 Bft) 95,74 %
28.08.2019 13:18 30,2 C 30,6 C 28,9 C 55 % 1014,1 hPa 0,0 l/m 2 min 0 min 426 W/m 12,9 km/h (3 Bft) 95,74 %
28.08.2019 13:20 30,1 C 30,0 C 28,3 C 55 % 1014,1 hPa 0,0 l/m 2 min 0 min 369 W/m 6,4 km/h (2 Bft) 95,74 %
28.08.2019 13:22 30,1 C 30,0 C 28,3 C 56 % 1014,2 hPa 0,0 l/m 0 min 0 min 341 W/m 16,1 km/h (3 Bft) 93,62 %
28.08.2019 13:24 29,9 C 29,4 C 28,3 C 55 % 1014,2 hPa 0,0 l/m 2 min 0 min 389 W/m 16,1 km/h (3 Bft) 95,65 %
28.08.2019 13:26 29,8 C 30,0 C 28,3 C 56 % 1014,1 hPa 0,0 l/m 2 min 0 min 431 W/m 12,9 km/h (3 Bft) 95,74 %
28.08.2019 13:28 29,8 C 31,1 C 28,9 C 56 % 1014,2 hPa 0,0 l/m 2 min 0 min 424 W/m 16,1 km/h (3 Bft) 95,74 %
28.08.2019 13:30 29,8 C 33,3 C 30,0 C 57 % 1014,1 hPa 0,0 l/m 2 min 0 min 625 W/m 6,4 km/h (2 Bft) 95,74 %
28.08.2019 13:32 29,8 C 33,9 C 30,0 C 57 % 1014,1 hPa 0,0 l/m 2 min 0 min 871 W/m 6,4 km/h (2 Bft) 95,74 %
28.08.2019 13:34 29,9 C 35,6 C 30,6 C 59 % 1014,2 hPa 0,0 l/m 2 min 0 min 626 W/m 3,2 km/h (1 Bft) 95,74 %
28.08.2019 13:36 30,0 C 35,0 C 30,6 C 56 % 1014,2 hPa 0,0 l/m 2 min 0 min 916 W/m 12,9 km/h (3 Bft) 95,65 %
28.08.2019 13:38 30,1 C 34,4 C 30,0 C 55 % 1014,2 hPa 0,0 l/m 2 min 0 min 865 W/m 22,5 km/h (4 Bft) 97,87 %
28.08.2019 13:40 30,1 C 36,1 C 30,6 C 55 % 1014,2 hPa 0,0 l/m 2 min 0 min 871 W/m 9,7 km/h (2 Bft) 93,62 %
28.08.2019 13:42 30,2 C 35,0 C 30,6 C 56 % 1014,2 hPa 0,0 l/m 2 min 0 min 868 W/m 9,7 km/h (2 Bft) 95,74 %
28.08.2019 13:44 30,3 C 35,0 C 30,6 C 57 % 1014,2 hPa 0,0 l/m 2 min 0 min 719 W/m 12,9 km/h (3 Bft) 93,62 %
28.08.2019 13:46 30,4 C 33,3 C 30,6 C 55 % 1014,2 hPa 0,0 l/m 2 min 0 min 519 W/m 12,9 km/h (3 Bft) 93,62 %
28.08.2019 13:48 30,4 C 33,3 C 30,6 C 55 % 1014,2 hPa 0,0 l/m 2 min 0 min 496 W/m 12,9 km/h (3 Bft) 97,83 %
28.08.2019 13:50 30,4 C 34,4 C 32,2 C 56 % 1014,2 hPa 0,0 l/m 2 min 0 min 610 W/m 3,2 km/h (1 Bft) 95,74 %
28.08.2019 13:52 30,6 C 33,9 C 32,2 C 55 % 1014,3 hPa 0,0 l/m 2 min 0 min 626 W/m 6,4 km/h (2 Bft) 100,00 %
28.08.2019 13:54 30,6 C 32,8 C 31,1 C 54 % 1014,2 hPa 0,0 l/m 0 min 0 min 325 W/m 6,4 km/h (2 Bft) 97,87 %
28.08.2019 13:56 30,6 C 32,2 C 30,6 C 55 % 1014,2 hPa 0,0 l/m 0 min 0 min 353 W/m 3,2 km/h (1 Bft) 97,87 %
28.08.2019 13:58 30,6 C 31,1 C 30,0 C 54 % 1014,3 hPa 0,0 l/m 2 min 0 min 387 W/m 22,5 km/h (4 Bft) 97,87 %
28.08.2019 14:00 30,6 C 30,6 C 30,0 C 55 % 1014,3 hPa 0,0 l/m 2 min 0 min 428 W/m 19,3 km/h (3 Bft) 100,00 %
28.08.2019 14:02 30,5 C 30,6 C 29,4 C 55 % 1014,3 hPa 0,0 l/m 2 min 0 min 409 W/m 12,9 km/h (3 Bft) 100,00 %
28.08.2019 14:04 30,4 C 30,6 C 30,0 C 55 % 1014,2 hPa 0,0 l/m 2 min 0 min 417 W/m 22,5 km/h (4 Bft) 97,87 %
28.08.2019 14:06 30,3 C 30,6 C 30,0 C 55 % 1014,3 hPa 0,0 l/m 2 min 0 min 444 W/m 16,1 km/h (3 Bft) 95,74 %
28.08.2019 14:08 30,2 C 30,6 C 29,4 C 55 % 1014,3 hPa 0,0 l/m 2 min 0 min 438 W/m 12,9 km/h (3 Bft) 100,00 %
28.08.2019 14:10 30,2 C 31,1 C 30,0 C 56 % 1014,3 hPa 0,0 l/m 2 min 0 min 427 W/m 9,7 km/h (2 Bft) 97,87 %
28.08.2019 14:12 30,2 C 31,1 C 30,0 C 57 % 1014,3 hPa 0,0 l/m 2 min 0 min 407 W/m 9,7 km/h (2 Bft) 97,83 %
28.08.2019 14:14 30,1 C 31,1 C 30,0 C 56 % 1014,2 hPa 0,0 l/m 2 min 0 min 415 W/m 9,7 km/h (2 Bft) 100,00 %
28.08.2019 14:16 30,1 C 31,7 C 30,6 C 57 % 1014,3 hPa 0,0 l/m 2 min 0 min 457 W/m 3,2 km/h (1 Bft) 95,74 %
28.08.2019 14:18 30,0 C 31,7 C 30,0 C 56 % 1014,2 hPa 0,0 l/m 2 min 0 min 475 W/m 9,7 km/h (2 Bft) 97,87 %
28.08.2019 14:20 30,0 C 31,7 C 30,6 C 56 % 1014,3 hPa 0,0 l/m 2 min 0 min 547 W/m 9,7 km/h (2 Bft) 100,00 %
28.08.2019 14:22 30,0 C 32,2 C 30,6 C 56 % 1014,3 hPa 0,0 l/m 2 min 0 min 471 W/m 12,9 km/h (3 Bft) 100,00 %
28.08.2019 14:24 30,0 C 32,2 C 30,0 C 56 % 1014,3 hPa 0,0 l/m 2 min 0 min 440 W/m 9,7 km/h (2 Bft) 97,83 %
28.08.2019 14:26 29,9 C 31,7 C 30,0 C 56 % 1014,3 hPa 0,0 l/m 2 min 0 min 528 W/m 6,4 km/h (2 Bft) 95,74 %
28.08.2019 14:28 29,9 C 32,2 C 30,0 C 57 % 1014,3 hPa 0,0 l/m 2 min 0 min 444 W/m 9,7 km/h (2 Bft) 100,00 %
28.08.2019 14:30 29,9 C 32,2 C 30,0 C 56 % 1014,3 hPa 0,0 l/m 2 min 0 min 447 W/m 6,4 km/h (2 Bft) 100,00 %
28.08.2019 14:32 29,9 C 32,2 C 30,0 C 58 % 1014,2 hPa 0,0 l/m 2 min 0 min 476 W/m 0,0 km/h (0 Bft) 100,00 %
28.08.2019 14:34 29,9 C 32,8 C 30,0 C 56 % 1014,3 hPa 0,0 l/m 2 min 0 min 435 W/m 3,2 km/h (1 Bft) 100,00 %
28.08.2019 14:36 30,0 C 33,9 C 30,6 C 56 % 1014,3 hPa 0,0 l/m 2 min 0 min 555 W/m 6,4 km/h (2 Bft) 97,87 %
28.08.2019 14:38 30,0 C 34,4 C 30,6 C 56 % 1014,3 hPa 0,0 l/m 2 min 0 min 699 W/m 6,4 km/h (2 Bft) 100,00 %
28.08.2019 14:40 30,1 C 34,4 C 30,0 C 55 % 1014,3 hPa 0,0 l/m 2 min 0 min 755 W/m 9,7 km/h (2 Bft) 95,74 %
28.08.2019 14:42 30,1 C 34,4 C 30,6 C 56 % 1014,4 hPa 0,0 l/m 2 min 0 min 659 W/m 6,4 km/h (2 Bft) 97,87 %
28.08.2019 14:44 30,2 C 33,9 C 30,0 C 55 % 1014,3 hPa 0,0 l/m 2 min 0 min 616 W/m 12,9 km/h (3 Bft) 97,87 %
28.08.2019 14:46 30,2 C 33,9 C 30,0 C 56 % 1014,3 hPa 0,0 l/m 2 min 0 min 444 W/m 6,4 km/h (2 Bft) 97,83 %
28.08.2019 14:48 30,3 C 33,9 C 30,0 C 55 % 1014,3 hPa 0,0 l/m 2 min 0 min 484 W/m 6,4 km/h (2 Bft) 97,87 %
28.08.2019 14:50 30,3 C 33,3 C 30,0 C 54 % 1014,2 hPa 0,0 l/m 2 min 0 min 467 W/m 3,2 km/h (1 Bft) 97,87 %
28.08.2019 14:52 30,4 C 32,8 C 30,0 C 54 % 1014,2 hPa 0,0 l/m 2 min 0 min 470 W/m 12,9 km/h (3 Bft) 97,87 %
28.08.2019 14:54 30,4 C 32,8 C 30,0 C 54 % 1014,2 hPa 0,0 l/m 2 min 0 min 464 W/m 3,2 km/h (1 Bft) 97,87 %
28.08.2019 14:56 30,4 C 32,8 C 30,0 C 55 % 1014,2 hPa 0,0 l/m 2 min 0 min 430 W/m 9,7 km/h (2 Bft) 97,87 %
28.08.2019 14:58 30,4 C 31,1 C 29,4 C 53 % 1014,2 hPa 0,0 l/m 2 min 0 min 383 W/m 19,3 km/h (3 Bft) 97,83 %
28.08.2019 15:00 30,4 C 32,2 C 30,0 C 53 % 1014,1 hPa 0,0 l/m 2 min 0 min 434 W/m 6,4 km/h (2 Bft) 97,87 %
28.08.2019 15:02 30,4 C 33,3 C 30,0 C 55 % 1014,1 hPa 0,0 l/m 2 min 0 min 485 W/m 3,2 km/h (1 Bft) 95,74 %
28.08.2019 15:04 30,5 C 34,4 C 30,6 C 54 % 1014,1 hPa 0,0 l/m 2 min 0 min 643 W/m 3,2 km/h (1 Bft) 97,87 %
28.08.2019 15:06 30,6 C 34,4 C 30,6 C 54 % 1014,1 hPa 0,0 l/m 2 min 0 min 603 W/m 6,4 km/h (2 Bft) 97,87 %
28.08.2019 15:08 30,6 C 33,9 C 30,0 C 53 % 1014,1 hPa 0,0 l/m 2 min 0 min 608 W/m 9,7 km/h (2 Bft) 97,87 %
28.08.2019 15:10 30,7 C 35,0 C 30,6 C 54 % 1014,1 hPa 0,0 l/m 2 min 0 min 606 W/m 3,2 km/h (1 Bft) 97,83 %
28.08.2019 15:12 30,7 C 34,4 C 30,6 C 53 % 1014,1 hPa 0,0 l/m 2 min 0 min 598 W/m 9,7 km/h (2 Bft) 95,74 %
28.08.2019 15:14 30,8 C 35,0 C 30,6 C 53 % 1014,1 hPa 0,0 l/m 2 min 0 min 622 W/m 3,2 km/h (1 Bft) 97,87 %
28.08.2019 15:16 30,9 C 35,6 C 30,6 C 54 % 1014,1 hPa 0,0 l/m 2 min 0 min 629 W/m 6,4 km/h (2 Bft) 95,74 %
28.08.2019 15:18 30,9 C 35,0 C 30,6 C 53 % 1014,0 hPa 0,0 l/m 2 min 0 min 613 W/m 6,4 km/h (2 Bft) 97,87 %
28.08.2019 15:20 31,0 C 33,9 C 30,0 C 52 % 1014,0 hPa 0,0 l/m 2 min 0 min 574 W/m 9,7 km/h (2 Bft) 97,83 %
28.08.2019 15:22 31,1 C 34,4 C 30,6 C 53 % 1014,1 hPa 0,0 l/m 2 min 0 min 543 W/m 6,4 km/h (2 Bft) 100,00 %
28.08.2019 15:24 31,1 C 34,4 C 30,6 C 54 % 1014,0 hPa 0,0 l/m 2 min 0 min 513 W/m 3,2 km/h (1 Bft) 100,00 %
28.08.2019 15:26 31,2 C 33,9 C 30,0 C 52 % 1014,0 hPa 0,0 l/m 2 min 0 min 534 W/m 9,7 km/h (2 Bft) 100,00 %
28.08.2019 15:28 31,2 C 33,9 C 30,6 C 52 % 1014,0 hPa 0,0 l/m 2 min 0 min 554 W/m 9,7 km/h (2 Bft) 100,00 %
28.08.2019 15:30 31,2 C 33,9 C 30,6 C 53 % 1013,9 hPa 0,0 l/m 2 min 0 min 534 W/m 6,4 km/h (2 Bft) 100,00 %
28.08.2019 15:32 31,3 C 35,0 C 30,6 C 52 % 1014,0 hPa 0,0 l/m 2 min 0 min 568 W/m 3,2 km/h (1 Bft) 97,83 %
28.08.2019 15:34 31,3 C 34,4 C 30,6 C 51 % 1013,9 hPa 0,0 l/m 2 min 0 min 571 W/m 6,4 km/h (2 Bft) 97,87 %
28.08.2019 15:36 31,4 C 35,0 C 30,6 C 52 % 1014,0 hPa 0,0 l/m 2 min 0 min 560 W/m 0,0 km/h (0 Bft) 100,00 %
28.08.2019 15:38 31,4 C 34,4 C 30,6 C 52 % 1013,9 hPa 0,0 l/m 2 min 0 min 575 W/m 12,9 km/h (3 Bft) 100,00 %
28.08.2019 15:40 31,4 C 34,4 C 30,6 C 51 % 1013,9 hPa 0,0 l/m 2 min 0 min 538 W/m 9,7 km/h (2 Bft) 100,00 %
28.08.2019 15:42 31,5 C 34,4 C 30,6 C 51 % 1013,9 hPa 0,0 l/m 2 min 0 min 542 W/m 3,2 km/h (1 Bft) 100,00 %
28.08.2019 15:44 31,6 C 35,0 C 30,6 C 52 % 1013,9 hPa 0,0 l/m 2 min 0 min 543 W/m 6,4 km/h (2 Bft) 95,65 %
28.08.2019 15:46 31,6 C 35,0 C 30,6 C 51 % 1013,9 hPa 0,0 l/m 2 min 0 min 576 W/m 6,4 km/h (2 Bft) 100,00 %
28.08.2019 15:48 31,6 C 35,6 C 30,6 C 51 % 1013,9 hPa 0,0 l/m 2 min 0 min 580 W/m 6,4 km/h (2 Bft) 97,87 %
28.08.2019 15:50 31,7 C 35,0 C 30,6 C 51 % 1013,8 hPa 0,0 l/m 2 min 0 min 643 W/m 9,7 km/h (2 Bft) 97,87 %
28.08.2019 15:52 31,7 C 35,6 C 30,6 C 51 % 1013,9 hPa 0,0 l/m 2 min 0 min 672 W/m 6,4 km/h (2 Bft) 97,87 %
28.08.2019 15:54 31,7 C 35,6 C 30,6 C 51 % 1013,8 hPa 0,0 l/m 2 min 0 min 661 W/m 6,4 km/h (2 Bft) 97,87 %
28.08.2019 15:56 31,8 C 35,6 C 30,6 C 51 % 1013,8 hPa 0,0 l/m 2 min 0 min 642 W/m 12,9 km/h (3 Bft) 97,83 %
28.08.2019 15:58 31,8 C 36,1 C 30,6 C 51 % 1013,7 hPa 0,0 l/m 2 min 0 min 586 W/m 12,9 km/h (3 Bft) 95,74 %
28.08.2019 16:00 31,8 C 35,6 C 31,1 C 51 % 1013,7 hPa 0,0 l/m 2 min 0 min 644 W/m 9,7 km/h (2 Bft) 97,87 %
28.08.2019 16:02 31,9 C 35,6 C 31,1 C 52 % 1013,7 hPa 0,0 l/m 2 min 0 min 671 W/m 16,1 km/h (3 Bft) 97,87 %
28.08.2019 16:04 31,9 C 35,6 C 31,1 C 52 % 1013,7 hPa 0,0 l/m 2 min 0 min 682 W/m 9,7 km/h (2 Bft) 97,87 %
28.08.2019 16:06 32,0 C 35,6 C 31,1 C 52 % 1013,8 hPa 0,0 l/m 2 min 0 min 682 W/m 9,7 km/h (2 Bft) 97,87 %
28.08.2019 16:08 32,1 C 35,6 C 31,1 C 52 % 1013,8 hPa 0,0 l/m 2 min 0 min 671 W/m 9,7 km/h (2 Bft) 97,83 %
28.08.2019 16:10 32,1 C 35,6 C 31,1 C 51 % 1013,8 hPa 0,0 l/m 2 min 0 min 626 W/m 9,7 km/h (2 Bft) 97,87 %
28.08.2019 16:12 32,1 C 35,0 C 31,1 C 51 % 1013,7 hPa 0,0 l/m 2 min 0 min 592 W/m 12,9 km/h (3 Bft) 100,00 %
28.08.2019 16:14 32,1 C 35,0 C 31,1 C 50 % 1013,7 hPa 0,0 l/m 2 min 0 min 573 W/m 9,7 km/h (2 Bft) 97,87 %
28.08.2019 16:16 32,1 C 35,6 C 31,1 C 50 % 1013,7 hPa 0,0 l/m 2 min 0 min 571 W/m 3,2 km/h (1 Bft) 95,74 %
28.08.2019 16:18 32,2 C 35,6 C 31,7 C 49 % 1013,8 hPa 0,0 l/m 2 min 0 min 569 W/m 12,9 km/h (3 Bft) 97,87 %
28.08.2019 16:20 32,1 C 34,4 C 31,1 C 50 % 1013,8 hPa 0,0 l/m 2 min 0 min 512 W/m 9,7 km/h (2 Bft) 97,83 %
28.08.2019 16:22 32,1 C 33,9 C 31,1 C 51 % 1013,8 hPa 0,0 l/m 2 min 0 min 505 W/m 9,7 km/h (2 Bft) 97,87 %
28.08.2019 16:24 32,1 C 33,9 C 31,1 C 50 % 1013,8 hPa 0,0 l/m 2 min 0 min 488 W/m 12,9 km/h (3 Bft) 97,87 %
28.08.2019 16:26 32,0 C 33,9 C 31,1 C 52 % 1013,8 hPa 0,0 l/m 2 min 0 min 509 W/m 9,7 km/h (2 Bft) 97,87 %
28.08.2019 16:28 31,9 C 33,3 C 30,6 C 50 % 1013,9 hPa 0,0 l/m 2 min 0 min 471 W/m 9,7 km/h (2 Bft) 97,87 %
28.08.2019 16:30 31,9 C 33,9 C 31,1 C 51 % 1013,9 hPa 0,0 l/m 2 min 0 min 474 W/m 3,2 km/h (1 Bft) 97,83 %
28.08.2019 16:32 31,8 C 33,9 C 31,7 C 52 % 1013,9 hPa 0,0 l/m 2 min 0 min 494 W/m 3,2 km/h (1 Bft) 93,62 %
28.08.2019 16:34 31,8 C 34,4 C 32,2 C 52 % 1013,8 hPa 0,0 l/m 2 min 0 min 504 W/m 9,7 km/h (2 Bft) 95,74 %
28.08.2019 16:36 31,8 C 34,4 C 33,3 C 52 % 1013,9 hPa 0,0 l/m 2 min 0 min 553 W/m 9,7 km/h (2 Bft) 97,87 %
28.08.2019 16:38 31,8 C 35,0 C 33,3 C 53 % 1013,9 hPa 0,0 l/m 2 min 0 min 567 W/m 16,1 km/h (3 Bft) 97,87 %
28.08.2019 16:40 31,8 C 35,0 C 33,3 C 53 % 1013,8 hPa 0,0 l/m 2 min 0 min 570 W/m 9,7 km/h (2 Bft) 97,87 %
28.08.2019 16:42 31,9 C 35,6 C 32,8 C 53 % 1013,8 hPa 0,0 l/m 2 min 0 min 552 W/m 3,2 km/h (1 Bft) 97,83 %
28.08.2019 16:44 31,9 C 35,0 C 32,2 C 52 % 1013,7 hPa 0,0 l/m 2 min 0 min 523 W/m 3,2 km/h (1 Bft) 97,87 %
28.08.2019 16:46 31,9 C 35,0 C 31,7 C 51 % 1013,7 hPa 0,0 l/m 2 min 0 min 522 W/m 6,4 km/h (2 Bft) 97,87 %
28.08.2019 16:48 31,9 C 35,0 C 31,7 C 52 % 1013,7 hPa 0,0 l/m 2 min 0 min 495 W/m 6,4 km/h (2 Bft) 95,74 %
28.08.2019 16:50 31,9 C 35,0 C 31,1 C 52 % 1013,7 hPa 0,0 l/m 2 min 0 min 493 W/m 3,2 km/h (1 Bft) 95,74 %
28.08.2019 16:52 31,9 C 35,0 C 31,1 C 51 % 1013,8 hPa 0,0 l/m 2 min 0 min 466 W/m 0,0 km/h (0 Bft) 97,87 %
28.08.2019 16:54 31,9 C 34,4 C 31,1 C 49 % 1013,9 hPa 0,0 l/m 2 min 0 min 425 W/m 12,9 km/h (3 Bft) 97,83 %
28.08.2019 16:56 31,9 C 33,9 C 30,6 C 48 % 1013,7 hPa 0,0 l/m 2 min 0 min 391 W/m 9,7 km/h (2 Bft) 95,74 %
28.08.2019 16:58 31,9 C 33,3 C 30,6 C 47 % 1013,8 hPa 0,0 l/m 2 min 0 min 384 W/m 12,9 km/h (3 Bft) 97,87 %
28.08.2019 17:00 31,9 C 33,3 C 30,6 C 48 % 1013,8 hPa 0,0 l/m 2 min 0 min 405 W/m 3,2 km/h (1 Bft) 95,74 %
28.08.2019 17:02 31,8 C 33,9 C 30,6 C 48 % 1013,8 hPa 0,0 l/m 2 min 0 min 448 W/m 9,7 km/h (2 Bft) 93,62 %
28.08.2019 17:04 31,8 C 33,9 C 30,6 C 48 % 1013,8 hPa 0,0 l/m 2 min 0 min 413 W/m 9,7 km/h (2 Bft) 97,87 %
28.08.2019 17:06 31,8 C 33,9 C 30,6 C 47 % 1013,9 hPa 0,0 l/m 2 min 0 min 401 W/m 9,7 km/h (2 Bft) 97,83 %
28.08.2019 17:08 31,7 C 33,3 C 30,6 C 47 % 1013,9 hPa 0,0 l/m 2 min 0 min 449 W/m 9,7 km/h (2 Bft) 97,87 %
28.08.2019 17:10 31,7 C 33,9 C 30,6 C 47 % 1013,8 hPa 0,0 l/m 2 min 0 min 454 W/m 9,7 km/h (2 Bft) 97,87 %
28.08.2019 17:12 31,7 C 33,3 C 30,6 C 47 % 1013,9 hPa 0,0 l/m 2 min 0 min 434 W/m 9,7 km/h (2 Bft) 95,74 %
28.08.2019 17:14 31,6 C 32,8 C 30,6 C 47 % 1013,9 hPa 0,0 l/m 2 min 0 min 405 W/m 3,2 km/h (1 Bft) 93,62 %
28.08.2019 17:16 31,6 C 32,2 C 30,0 C 47 % 1013,9 hPa 0,0 l/m 2 min 0 min 352 W/m 12,9 km/h (3 Bft) 95,74 %
28.08.2019 17:18 31,6 C 32,2 C 30,0 C 48 % 1013,9 hPa 0,0 l/m 2 min 0 min 314 W/m 9,7 km/h (2 Bft) 93,48 %
28.08.2019 17:20 31,5 C 31,7 C 30,0 C 48 % 1014,0 hPa 0,0 l/m 2 min 0 min 291 W/m 9,7 km/h (2 Bft) 95,74 %
28.08.2019 17:22 31,4 C 31,7 C 29,4 C 49 % 1013,9 hPa 0,0 l/m 2 min 0 min 279 W/m 6,4 km/h (2 Bft) 95,74 %
28.08.2019 17:24 31,4 C 31,7 C 29,4 C 48 % 1014,0 hPa 0,0 l/m 2 min 0 min 244 W/m 3,2 km/h (1 Bft) 95,74 %
28.08.2019 17:26 31,3 C 31,1 C 28,9 C 49 % 1014,0 hPa 0,0 l/m 2 min 0 min 243 W/m 9,7 km/h (2 Bft) 93,62 %
28.08.2019 17:28 31,2 C 31,1 C 28,9 C 49 % 1013,9 hPa 0,0 l/m 2 min 0 min 239 W/m 6,4 km/h (2 Bft) 95,74 %
28.08.2019 17:30 31,2 C 31,1 C 28,9 C 50 % 1014,0 hPa 0,0 l/m 2 min 0 min 247 W/m 9,7 km/h (2 Bft) 93,48 %
28.08.2019 17:32 31,1 C 31,1 C 29,4 C 50 % 1014,0 hPa 0,0 l/m 2 min 0 min 277 W/m 6,4 km/h (2 Bft) 95,74 %
28.08.2019 17:34 31,1 C 31,1 C 29,4 C 50 % 1014,0 hPa 0,0 l/m 2 min 0 min 263 W/m 3,2 km/h (1 Bft) 95,74 %
28.08.2019 17:36 31,0 C 31,1 C 29,4 C 50 % 1013,9 hPa 0,0 l/m 2 min 0 min 283 W/m 3,2 km/h (1 Bft) 95,74 %
28.08.2019 17:38 30,9 C 31,1 C 28,9 C 49 % 1013,9 hPa 0,0 l/m 2 min 0 min 300 W/m 6,4 km/h (2 Bft) 95,74 %
28.08.2019 17:40 30,9 C 31,7 C 28,9 C 50 % 1013,9 hPa 0,0 l/m 2 min 0 min 292 W/m 3,2 km/h (1 Bft) 95,74 %
28.08.2019 17:42 30,9 C 31,7 C 28,9 C 49 % 1013,9 hPa 0,0 l/m 2 min 0 min 286 W/m 12,9 km/h (3 Bft) 95,65 %
28.08.2019 17:44 30,9 C 32,2 C 28,9 C 49 % 1013,9 hPa 0,0 l/m 2 min 0 min 283 W/m 3,2 km/h (1 Bft) 95,74 %
28.08.2019 17:46 30,9 C 31,7 C 29,4 C 49 % 1013,9 hPa 0,0 l/m 2 min 0 min 285 W/m 9,7 km/h (2 Bft) 95,74 %
28.08.2019 17:48 30,8 C 31,7 C 28,9 C 50 % 1014,0 hPa 0,0 l/m 2 min 0 min 291 W/m 9,7 km/h (2 Bft) 95,74 %
28.08.2019 17:50 30,8 C 31,7 C 28,9 C 49 % 1014,0 hPa 0,0 l/m 2 min 0 min 274 W/m 6,4 km/h (2 Bft) 95,74 %
28.08.2019 17:52 30,8 C 31,1 C 28,9 C 50 % 1014,0 hPa 0,0 l/m 2 min 0 min 227 W/m 9,7 km/h (2 Bft) 97,83 %
28.08.2019 17:54 30,7 C 31,1 C 28,9 C 50 % 1013,9 hPa 0,0 l/m 2 min 0 min 196 W/m 9,7 km/h (2 Bft) 97,87 %
28.08.2019 17:56 30,7 C 30,6 C 28,9 C 50 % 1014,0 hPa 0,0 l/m 2 min 0 min 192 W/m 0,0 km/h (0 Bft) 97,87 %
28.08.2019 17:58 30,7 C 30,6 C 28,9 C 50 % 1014,0 hPa 0,0 l/m 2 min 0 min 188 W/m 3,2 km/h (1 Bft) 91,49 %
28.08.2019 18:00 30,6 C 30,6 C 28,9 C 50 % 1014,0 hPa 0,0 l/m 0 min 0 min 182 W/m 3,2 km/h (1 Bft) 97,87 %
28.08.2019 18:02 30,6 C 30,0 C 28,9 C 50 % 1014,0 hPa 0,0 l/m 2 min 0 min 183 W/m 3,2 km/h (1 Bft) 97,87 %
28.08.2019 18:04 30,6 C 30,0 C 28,9 C 50 % 1014,0 hPa 0,0 l/m 0 min 0 min 178 W/m 6,4 km/h (2 Bft) 100,00 %
28.08.2019 18:08 30,4 C 30,0 C 28,9 C 51 % 1014,0 hPa 0,0 l/m 0 min 0 min 168 W/m 3,2 km/h (1 Bft) 98,94 %
28.08.2019 18:10 30,4 C 30,0 C 28,3 C 51 % 1014,0 hPa 0,0 l/m 0 min 0 min 158 W/m 0,0 km/h (0 Bft) 100,00 %
28.08.2019 18:12 30,4 C 29,4 C 28,3 C 51 % 1014,0 hPa 0,0 l/m 0 min 0 min 151 W/m 0,0 km/h (0 Bft) 100,00 %
28.08.2019 18:14 30,3 C 29,4 C 28,3 C 52 % 1014,0 hPa 0,0 l/m 0 min 0 min 145 W/m 3,2 km/h (1 Bft) 100,00 %
28.08.2019 18:16 30,3 C 29,4 C 28,3 C 51 % 1014,0 hPa 0,0 l/m 0 min 0 min 138 W/m 3,2 km/h (1 Bft) 100,00 %
28.08.2019 18:18 30,2 C 29,4 C 28,3 C 51 % 1014,0 hPa 0,0 l/m 0 min 0 min 133 W/m 6,4 km/h (2 Bft) 100,00 %
28.08.2019 18:20 30,1 C 28,9 C 28,3 C 51 % 1014,0 hPa 0,0 l/m 0 min 0 min 129 W/m 3,2 km/h (1 Bft) 100,00 %
28.08.2019 18:22 30,1 C 28,9 C 28,3 C 51 % 1014,0 hPa 0,0 l/m 0 min 0 min 126 W/m 6,4 km/h (2 Bft) 100,00 %
28.08.2019 18:24 30,0 C 28,9 C 27,8 C 51 % 1014,0 hPa 0,0 l/m 0 min 0 min 122 W/m 9,7 km/h (2 Bft) 100,00 %
28.08.2019 18:26 29,9 C 28,9 C 27,8 C 51 % 1014,0 hPa 0,0 l/m 0 min 0 min 121 W/m 6,4 km/h (2 Bft) 100,00 %
28.08.2019 18:28 29,8 C 28,9 C 27,8 C 51 % 1014,0 hPa 0,0 l/m 0 min 0 min 120 W/m 9,7 km/h (2 Bft) 97,83 %
28.08.2019 18:30 29,8 C 28,9 C 27,8 C 51 % 1013,9 hPa 0,0 l/m 0 min 0 min 120 W/m 3,2 km/h (1 Bft) 100,00 %
28.08.2019 18:32 29,8 C 28,9 C 27,8 C 52 % 1013,9 hPa 0,0 l/m 0 min 0 min 118 W/m 3,2 km/h (1 Bft) 97,87 %
28.08.2019 18:34 29,7 C 28,9 C 27,8 C 51 % 1014,0 hPa 0,0 l/m 0 min 0 min 118 W/m 3,2 km/h (1 Bft) 93,62 %
28.08.2019 18:36 29,7 C 28,9 C 27,8 C 52 % 1013,9 hPa 0,0 l/m 0 min 0 min 116 W/m 0,0 km/h (0 Bft) 97,87 %
28.08.2019 18:38 29,6 C 28,9 C 27,8 C 52 % 1014,0 hPa 0,0 l/m 0 min 0 min 115 W/m 0,0 km/h (0 Bft) 97,83 %
28.08.2019 18:40 29,6 C 28,3 C 27,8 C 53 % 1014,0 hPa 0,0 l/m 0 min 0 min 114 W/m 3,2 km/h (1 Bft) 95,74 %
28.08.2019 18:42 29,6 C 28,3 C 27,8 C 54 % 1013,9 hPa 0,0 l/m 0 min 0 min 113 W/m 3,2 km/h (1 Bft) 97,87 %
28.08.2019 18:44 29,5 C 28,3 C 27,8 C 53 % 1013,9 hPa 0,0 l/m 0 min 0 min 111 W/m 3,2 km/h (1 Bft) 97,87 %
28.08.2019 18:46 29,4 C 28,3 C 27,8 C 53 % 1013,9 hPa 0,0 l/m 0 min 0 min 108 W/m 0,0 km/h (0 Bft) 97,87 %
28.08.2019 18:48 29,4 C 28,3 C 27,8 C 52 % 1013,9 hPa 0,0 l/m 0 min 0 min 106 W/m 0,0 km/h (0 Bft) 97,87 %
28.08.2019 18:50 29,4 C 28,3 C 27,8 C 54 % 1013,9 hPa 0,0 l/m 0 min 0 min 104 W/m 0,0 km/h (0 Bft) 97,83 %
28.08.2019 18:52 29,3 C 28,3 C 27,2 C 53 % 1013,9 hPa 0,0 l/m 0 min 0 min 102 W/m 3,2 km/h (1 Bft) 95,74 %
28.08.2019 18:54 29,3 C 28,3 C 27,2 C 54 % 1013,9 hPa 0,0 l/m 0 min 0 min 98 W/m 3,2 km/h (1 Bft) 97,87 %
28.08.2019 18:56 29,3 C 27,8 C 27,2 C 55 % 1014,0 hPa 0,0 l/m 0 min 0 min 95 W/m 0,0 km/h (0 Bft) 97,87 %
28.08.2019 18:58 29,2 C 27,8 C 27,2 C 55 % 1014,0 hPa 0,0 l/m 0 min 0 min 90 W/m 3,2 km/h (1 Bft) 97,87 %
28.08.2019 19:00 29,2 C 27,8 C 27,2 C 55 % 1013,9 hPa 0,0 l/m 0 min 0 min 85 W/m 0,0 km/h (0 Bft) 97,87 %
28.08.2019 19:02 29,1 C 27,8 C 27,2 C 55 % 1013,9 hPa 0,0 l/m 0 min 0 min 81 W/m 3,2 km/h (1 Bft) 97,87 %
28.08.2019 19:04 29,1 C 27,8 C 27,2 C 55 % 1013,9 hPa 0,0 l/m 0 min 0 min 77 W/m 0,0 km/h (0 Bft) 97,83 %
28.08.2019 19:06 29,1 C 27,8 C 27,2 C 56 % 1013,8 hPa 0,0 l/m 0 min 0 min 73 W/m 0,0 km/h (0 Bft) 97,87 %
28.08.2019 19:08 29,0 C 27,8 C 26,7 C 56 % 1013,9 hPa 0,0 l/m 0 min 0 min 70 W/m 0,0 km/h (0 Bft) 97,87 %
28.08.2019 19:10 29,0 C 27,2 C 26,1 C 58 % 1013,8 hPa 0,0 l/m 0 min 0 min 69 W/m 0,0 km/h (0 Bft) 95,74 %
28.08.2019 19:12 29,0 C 27,2 C 26,1 C 60 % 1013,9 hPa 0,0 l/m 0 min 0 min 67 W/m 0,0 km/h (0 Bft) 100,00 %
28.08.2019 19:14 28,9 C 27,2 C 25,6 C 60 % 1013,9 hPa 0,0 l/m 0 min 0 min 65 W/m 0,0 km/h (0 Bft) 100,00 %
28.08.2019 19:16 28,9 C 27,2 C 25,6 C 60 % 1013,9 hPa 0,0 l/m 0 min 0 min 62 W/m 0,0 km/h (0 Bft) 97,87 %
28.08.2019 19:18 28,9 C 27,2 C 25,6 C 58 % 1013,9 hPa 0,0 l/m 0 min 0 min 59 W/m 0,0 km/h (0 Bft) 97,87 %
28.08.2019 19:20 28,8 C 27,2 C 25,6 C 59 % 1013,9 hPa 0,0 l/m 0 min 0 min 57 W/m 0,0 km/h (0 Bft) 97,87 %
28.08.2019 19:22 28,8 C 27,2 C 25,0 C 59 % 1013,9 hPa 0,0 l/m 0 min 0 min 54 W/m 0,0 km/h (0 Bft) 100,00 %
28.08.2019 19:24 28,7 C 27,2 C 25,0 C 60 % 1013,9 hPa 0,0 l/m 0 min 0 min 53 W/m 0,0 km/h (0 Bft) 97,87 %
28.08.2019 19:26 28,7 C 26,7 C 25,0 C 60 % 1013,9 hPa 0,0 l/m 0 min 0 min 52 W/m 0,0 km/h (0 Bft) 100,00 %
28.08.2019 19:28 28,7 C 26,7 C 24,4 C 61 % 1013,9 hPa 0,0 l/m 0 min 0 min 51 W/m 0,0 km/h (0 Bft) 97,87 %
28.08.2019 19:30 28,6 C 26,7 C 24,4 C 61 % 1014,0 hPa 0,0 l/m 0 min 0 min 49 W/m 3,2 km/h (1 Bft) 100,00 %
28.08.2019 19:32 28,6 C 26,7 C 24,4 C 60 % 1014,0 hPa 0,0 l/m 0 min 0 min 47 W/m 0,0 km/h (0 Bft) 100,00 %
28.08.2019 19:34 28,5 C 26,7 C 24,4 C 61 % 1013,9 hPa 0,0 l/m 0 min 0 min 45 W/m 0,0 km/h (0 Bft) 100,00 %
28.08.2019 19:36 28,5 C 26,7 C 23,9 C 60 % 1013,9 hPa 0,0 l/m 0 min 0 min 43 W/m 0,0 km/h (0 Bft) 100,00 %
28.08.2019 19:38 28,4 C 26,1 C 23,9 C 61 % 1013,9 hPa 0,0 l/m 0 min 0 min 41 W/m 0,0 km/h (0 Bft) 100,00 %
28.08.2019 19:40 28,4 C 26,1 C 23,9 C 63 % 1013,9 hPa 0,0 l/m 0 min 0 min 39 W/m 0,0 km/h (0 Bft) 100,00 %
28.08.2019 19:42 28,3 C 26,1 C 23,9 C 62 % 1013,9 hPa 0,0 l/m 0 min 0 min 37 W/m 0,0 km/h (0 Bft) 100,00 %
28.08.2019 19:44 28,3 C 26,1 C 23,3 C 62 % 1013,9 hPa 0,0 l/m 0 min 0 min 35 W/m 0,0 km/h (0 Bft) 100,00 %
28.08.2019 19:46 28,2 C 26,1 C 23,3 C 62 % 1013,9 hPa 0,0 l/m 0 min 0 min 33 W/m 0,0 km/h (0 Bft) 100,00 %
28.08.2019 19:48 28,2 C 26,1 C 23,3 C 61 % 1014,0 hPa 0,0 l/m 0 min 0 min 29 W/m 0,0 km/h (0 Bft) 100,00 %
28.08.2019 19:50 28,1 C 26,1 C 23,3 C 62 % 1014,0 hPa 0,0 l/m 0 min 0 min 27 W/m 0,0 km/h (0 Bft) 100,00 %
28.08.2019 19:52 28,1 C 25,6 C 23,3 C 64 % 1014,0 hPa 0,0 l/m 0 min 0 min 25 W/m 0,0 km/h (0 Bft) 100,00 %
28.08.2019 19:54 28,0 C 25,6 C 22,8 C 64 % 1014,0 hPa 0,0 l/m 0 min 0 min 23 W/m 0,0 km/h (0 Bft) 97,87 %
28.08.2019 19:56 27,9 C 25,6 C 22,8 C 64 % 1013,9 hPa 0,0 l/m 0 min 0 min 21 W/m 0,0 km/h (0 Bft) 97,87 %
28.08.2019 19:58 27,9 C 25,6 C 22,8 C 64 % 1014,0 hPa 0,0 l/m 0 min 0 min 19 W/m 0,0 km/h (0 Bft) 100,00 %
28.08.2019 20:00 27,9 C 25,6 C 22,8 C 65 % 1014,0 hPa 0,0 l/m 0 min 0 min 17 W/m 0,0 km/h (0 Bft) 100,00 %
28.08.2019 20:02 27,8 C 25,0 C 22,8 C 65 % 1013,9 hPa 0,0 l/m 0 min 0 min 14 W/m 0,0 km/h (0 Bft) 95,74 %
28.08.2019 20:04 27,8 C 25,0 C 22,8 C 65 % 1013,9 hPa 0,0 l/m 0 min 0 min 14 W/m 0,0 km/h (0 Bft) 100,00 %
28.08.2019 20:06 27,7 C 25,0 C 22,8 C 66 % 1014,0 hPa 0,0 l/m 0 min 0 min 12 W/m 0,0 km/h (0 Bft) 100,00 %
28.08.2019 20:08 27,7 C 25,0 C 22,8 C 66 % 1014,0 hPa 0,0 l/m 0 min 0 min 12 W/m 0,0 km/h (0 Bft) 95,74 %
28.08.2019 20:10 27,6 C 25,0 C 22,8 C 65 % 1014,0 hPa 0,0 l/m 0 min 0 min 11 W/m 0,0 km/h (0 Bft) 95,74 %
28.08.2019 20:12 27,5 C 25,0 C 22,8 C 67 % 1013,9 hPa 0,0 l/m 0 min 0 min 11 W/m 0,0 km/h (0 Bft) 95,65 %
28.08.2019 20:14 27,4 C 25,0 C 22,8 C 67 % 1014,0 hPa 0,0 l/m 0 min 0 min 10 W/m 0,0 km/h (0 Bft) 97,87 %
28.08.2019 20:16 27,4 C 25,0 C 22,8 C 67 % 1014,0 hPa 0,0 l/m 0 min 0 min 9 W/m 0,0 km/h (0 Bft) 95,74 %
28.08.2019 20:18 27,3 C 25,0 C 22,8 C 66 % 1014,1 hPa 0,0 l/m 0 min 0 min 9 W/m 0,0 km/h (0 Bft) 95,74 %
28.08.2019 20:20 27,3 C 24,4 C 22,2 C 68 % 1014,0 hPa 0,0 l/m 0 min 0 min 7 W/m 0,0 km/h (0 Bft) 95,74 %
28.08.2019 20:22 27,2 C 24,4 C 22,2 C 68 % 1014,0 hPa 0,0 l/m 0 min 0 min 6 W/m 0,0 km/h (0 Bft) 95,74 %
28.08.2019 20:24 27,1 C 24,4 C 22,2 C 68 % 1014,1 hPa 0,0 l/m 0 min 0 min 5 W/m 0,0 km/h (0 Bft) 95,65 %
28.08.2019 20:26 27,1 C 23,9 C 22,2 C 68 % 1014,1 hPa 0,0 l/m 0 min 0 min 1 W/m 0,0 km/h (0 Bft) 95,74 %
28.08.2019 20:28 27,0 C 23,9 C 22,2 C 68 % 1014,1 hPa 0,0 l/m 0 min 0 min 0 W/m 0,0 km/h (0 Bft) 93,62 %
28.08.2019 20:30 26,9 C 23,9 C 22,2 C 68 % 1014,1 hPa 0,0 l/m 0 min 0 min 0 W/m 0,0 km/h (0 Bft) 97,87 %
28.08.2019 20:32 26,9 C 23,9 C 22,2 C 68 % 1014,1 hPa 0,0 l/m 0 min 0 min 0 W/m 0,0 km/h (0 Bft) 95,74 %
28.08.2019 20:34 26,8 C 23,9 C 21,7 C 69 % 1014,1 hPa 0,0 l/m 0 min 0 min 0 W/m 0,0 km/h (0 Bft) 95,74 %
28.08.2019 20:36 26,8 C 23,9 C 21,7 C 69 % 1014,1 hPa 0,0 l/m 0 min 0 min 0 W/m 0,0 km/h (0 Bft) 95,65 %
28.08.2019 20:38 26,7 C 23,9 C 21,7 C 69 % 1014,2 hPa 0,0 l/m 0 min 0 min 0 W/m 0,0 km/h (0 Bft) 95,74 %
28.08.2019 20:40 26,6 C 23,9 C 21,7 C 69 % 1014,2 hPa 0,0 l/m 0 min 0 min 0 W/m 0,0 km/h (0 Bft) 95,74 %
28.08.2019 20:42 26,6 C 23,3 C 21,7 C 69 % 1014,2 hPa 0,0 l/m 0 min 0 min 0 W/m 0,0 km/h (0 Bft) 93,62 %
28.08.2019 20:44 26,4 C 23,3 C 21,7 C 70 % 1014,2 hPa 0,0 l/m 0 min 0 min 0 W/m 0,0 km/h (0 Bft) 93,62 %
28.08.2019 20:46 26,4 C 23,3 C 21,7 C 70 % 1014,2 hPa 0,0 l/m 0 min 0 min 0 W/m 0,0 km/h (0 Bft) 95,74 %
28.08.2019 20:48 26,3 C 23,3 C 21,7 C 71 % 1014,2 hPa 0,0 l/m 0 min 0 min 0 W/m 0,0 km/h (0 Bft) 95,65 %
28.08.2019 20:50 26,2 C 23,3 C 21,7 C 71 % 1014,3 hPa 0,0 l/m 0 min 0 min 0 W/m 0,0 km/h (0 Bft) 95,74 %
28.08.2019 20:52 26,2 C 23,3 C 21,7 C 72 % 1014,3 hPa 0,0 l/m 0 min 0 min 0 W/m 0,0 km/h (0 Bft) 93,62 %
28.08.2019 20:54 26,1 C 23,3 C 21,7 C 72 % 1014,3 hPa 0,0 l/m 0 min 0 min 0 W/m 0,0 km/h (0 Bft) 93,62 %
28.08.2019 20:56 26,0 C 23,3 C 21,7 C 72 % 1014,3 hPa 0,0 l/m 0 min 0 min 0 W/m 0,0 km/h (0 Bft) 95,74 %
28.08.2019 20:58 25,9 C 22,8 C 21,7 C 72 % 1014,3 hPa 0,0 l/m 0 min 0 min 0 W/m 0,0 km/h (0 Bft) 95,65 %
28.08.2019 21:00 25,8 C 22,8 C 21,7 C 72 % 1014,3 hPa 0,0 l/m 0 min 0 min 0 W/m 0,0 km/h (0 Bft) 93,62 %
28.08.2019 21:02 25,8 C 22,8 C 21,7 C 72 % 1014,3 hPa 0,0 l/m 0 min 0 min 0 W/m 0,0 km/h (0 Bft) 93,75 %
28.08.2019 21:04 25,7 C 23,3 C 21,7 C 72 % 1014,3 hPa 0,0 l/m 0 min 0 min 0 W/m 0,0 km/h (0 Bft) 95,74 %
28.08.2019 21:06 25,7 C 23,9 C 21,1 C 70 % 1014,3 hPa 0,0 l/m 0 min 0 min 0 W/m 0,0 km/h (0 Bft) 95,74 %
28.08.2019 21:08 25,6 C 23,9 C 21,7 C 69 % 1014,2 hPa 0,0 l/m 0 min 0 min 0 W/m 0,0 km/h (0 Bft) 95,74 %
28.08.2019 21:10 25,6 C 23,9 C 21,7 C 69 % 1014,2 hPa 0,0 l/m 0 min 0 min 0 W/m 0,0 km/h (0 Bft) 93,48 %
28.08.2019 21:12 25,5 C 23,9 C 21,7 C 69 % 1014,3 hPa 0,0 l/m 0 min 0 min 0 W/m 0,0 km/h (0 Bft) 93,62 %
28.08.2019 21:14 25,4 C 23,9 C 21,7 C 69 % 1014,3 hPa 0,0 l/m 0 min 0 min 0 W/m 0,0 km/h (0 Bft) 93,62 %
28.08.2019 21:16 25,4 C 23,9 C 21,7 C 69 % 1014,2 hPa 0,0 l/m 0 min 0 min 0 W/m 0,0 km/h (0 Bft) 93,62 %
28.08.2019 21:18 25,4 C 23,9 C 21,7 C 69 % 1014,3 hPa 0,0 l/m 0 min 0 min 0 W/m 0,0 km/h (0 Bft) 95,74 %
28.08.2019 21:20 25,3 C 23,3 C 21,1 C 70 % 1014,3 hPa 0,0 l/m 0 min 0 min 0 W/m 0,0 km/h (0 Bft) 95,74 %
28.08.2019 21:22 25,3 C 23,9 C 21,1 C 70 % 1014,3 hPa 0,0 l/m 0 min 0 min 0 W/m 0,0 km/h (0 Bft) 89,13 %
28.08.2019 21:24 25,3 C 23,3 C 21,1 C 70 % 1014,2 hPa 0,0 l/m 0 min 0 min 0 W/m 0,0 km/h (0 Bft) 95,74 %
28.08.2019 21:26 25,2 C 23,3 C 21,1 C 71 % 1014,3 hPa 0,0 l/m 0 min 0 min 0 W/m 0,0 km/h (0 Bft) 97,87 %
28.08.2019 21:28 25,2 C 23,3 C 21,1 C 71 % 1014,3 hPa 0,0 l/m 0 min 0 min 0 W/m 0,0 km/h (0 Bft) 95,74 %
28.08.2019 21:30 25,2 C 22,8 C 21,1 C 72 % 1014,3 hPa 0,0 l/m 0 min 0 min 0 W/m 0,0 km/h (0 Bft) 97,87 %
28.08.2019 21:32 25,1 C 22,8 C 21,1 C 73 % 1014,3 hPa 0,0 l/m 0 min 0 min 0 W/m 0,0 km/h (0 Bft) 97,87 %
28.08.2019 21:34 25,1 C 22,8 C 21,1 C 73 % 1014,4 hPa 0,0 l/m 0 min 0 min 0 W/m 0,0 km/h (0 Bft) 97,83 %
28.08.2019 21:36 25,1 C 22,8 C 21,1 C 74 % 1014,3 hPa 0,0 l/m 0 min 0 min 0 W/m 0,0 km/h (0 Bft) 97,87 %
28.08.2019 21:38 25,1 C 22,8 C 21,1 C 74 % 1014,3 hPa 0,0 l/m 0 min 0 min 0 W/m 0,0 km/h (0 Bft) 97,87 %
28.08.2019 21:40 25,1 C 22,8 C 21,1 C 74 % 1014,4 hPa 0,0 l/m 0 min 0 min 0 W/m 0,0 km/h (0 Bft) 97,87 %
28.08.2019 21:42 24,9 C 22,8 C 21,1 C 73 % 1014,4 hPa 0,0 l/m 0 min 0 min 0 W/m 0,0 km/h (0 Bft) 95,74 %
28.08.2019 21:44 24,9 C 22,8 C 21,1 C 73 % 1014,4 hPa 0,0 l/m 0 min 0 min 0 W/m 0,0 km/h (0 Bft) 97,87 %
28.08.2019 21:46 24,9 C 22,2 C 21,1 C 73 % 1014,4 hPa 0,0 l/m 0 min 0 min 0 W/m 0,0 km/h (0 Bft) 97,83 %
28.08.2019 21:48 24,8 C 22,2 C 21,1 C 74 % 1014,4 hPa 0,0 l/m 0 min 0 min 0 W/m 0,0 km/h (0 Bft) 100,00 %
28.08.2019 21:50 24,8 C 22,2 C 21,1 C 74 % 1014,4 hPa 0,0 l/m 0 min 0 min 0 W/m 0,0 km/h (0 Bft) 100,00 %
28.08.2019 21:52 24,7 C 22,2 C 21,1 C 74 % 1014,4 hPa 0,0 l/m 0 min 0 min 0 W/m 0,0 km/h (0 Bft) 97,87 %
28.08.2019 21:54 24,7 C 22,2 C 21,1 C 74 % 1014,4 hPa 0,0 l/m 0 min 0 min 0 W/m 0,0 km/h (0 Bft) 100,00 %
28.08.2019 21:56 24,6 C 22,2 C 21,1 C 74 % 1014,4 hPa 0,0 l/m 0 min 0 min 0 W/m 0,0 km/h (0 Bft) 100,00 %
28.08.2019 21:58 24,6 C 22,2 C 21,1 C 74 % 1014,4 hPa 0,0 l/m 0 min 0 min 0 W/m 0,0 km/h (0 Bft) 100,00 %
28.08.2019 22:00 24,5 C 22,2 C 20,6 C 74 % 1014,4 hPa 0,0 l/m 0 min 0 min 0 W/m 0,0 km/h (0 Bft) 97,87 %
28.08.2019 22:02 24,4 C 22,2 C 20,6 C 74 % 1014,5 hPa 0,0 l/m 0 min 0 min 0 W/m 0,0 km/h (0 Bft) 95,74 %
28.08.2019 22:04 24,4 C 22,2 C 21,1 C 74 % 1014,5 hPa 0,0 l/m 0 min 0 min 0 W/m 0,0 km/h (0 Bft) 100,00 %
28.08.2019 22:06 24,4 C 22,2 C 21,1 C 73 % 1014,5 hPa 0,0 l/m 0 min 0 min 0 W/m 0,0 km/h (0 Bft) 100,00 %
28.08.2019 22:08 24,3 C 22,2 C 21,1 C 73 % 1014,4 hPa 0,0 l/m 0 min 0 min 0 W/m 0,0 km/h (0 Bft) 100,00 %
28.08.2019 22:10 24,3 C 22,2 C 21,1 C 73 % 1014,5 hPa 0,0 l/m 0 min 0 min 0 W/m 0,0 km/h (0 Bft) 100,00 %
28.08.2019 22:12 24,2 C 22,2 C 20,6 C 74 % 1014,4 hPa 0,0 l/m 0 min 0 min 0 W/m 0,0 km/h (0 Bft) 100,00 %
28.08.2019 22:14 24,2 C 22,2 C 20,6 C 74 % 1014,5 hPa 0,0 l/m 0 min 0 min 0 W/m 0,0 km/h (0 Bft) 100,00 %
28.08.2019 22:16 24,2 C 22,2 C 21,1 C 73 % 1014,5 hPa 0,0 l/m 0 min 0 min 0 W/m 0,0 km/h (0 Bft) 100,00 %
28.08.2019 22:18 24,1 C 22,8 C 21,1 C 73 % 1014,5 hPa 0,0 l/m 0 min 0 min 0 W/m 0,0 km/h (0 Bft) 100,00 %
28.08.2019 22:20 24,1 C 22,8 C 21,1 C 73 % 1014,6 hPa 0,0 l/m 0 min 0 min 0 W/m 3,2 km/h (1 Bft) 100,00 %
28.08.2019 22:22 24,1 C 22,8 C 21,7 C 73 % 1014,6 hPa 0,0 l/m 0 min 0 min 0 W/m 9,7 km/h (2 Bft) 97,87 %
28.08.2019 22:24 24,0 C 23,3 C 21,7 C 73 % 1014,6 hPa 0,0 l/m 0 min 0 min 0 W/m 3,2 km/h (1 Bft) 100,00 %
28.08.2019 22:26 24,0 C 23,3 C 21,7 C 73 % 1014,7 hPa 0,0 l/m 0 min 0 min 0 W/m 0,0 km/h (0 Bft) 97,87 %
28.08.2019 22:28 23,9 C 22,8 C 21,7 C 73 % 1014,8 hPa 0,0 l/m 0 min 0 min 0 W/m 0,0 km/h (0 Bft) 100,00 %
28.08.2019 22:30 23,9 C 22,8 C 21,7 C 73 % 1014,8 hPa 0,0 l/m 0 min 0 min 0 W/m 0,0 km/h (0 Bft) 100,00 %
28.08.2019 22:32 23,9 C 22,8 C 21,1 C 73 % 1014,8 hPa 0,0 l/m 0 min 0 min 0 W/m 0,0 km/h (0 Bft) 100,00 %
28.08.2019 22:34 23,9 C 22,8 C 21,1 C 73 % 1014,7 hPa 0,0 l/m 0 min 0 min 0 W/m 0,0 km/h (0 Bft) 97,87 %
28.08.2019 22:36 23,9 C 22,8 C 21,1 C 73 % 1014,8 hPa 0,0 l/m 0 min 0 min 0 W/m 0,0 km/h (0 Bft) 100,00 %
28.08.2019 22:38 23,9 C 22,2 C 20,6 C 73 % 1014,8 hPa 0,0 l/m 0 min 0 min 0 W/m 0,0 km/h (0 Bft) 100,00 %
28.08.2019 22:40 23,9 C 22,2 C 20,6 C 74 % 1014,8 hPa 0,0 l/m 0 min 0 min 0 W/m 0,0 km/h (0 Bft) 100,00 %
28.08.2019 22:42 23,9 C 22,2 C 20,6 C 74 % 1014,8 hPa 0,0 l/m 0 min 0 min 0 W/m 0,0 km/h (0 Bft) 100,00 %
28.08.2019 22:44 23,9 C 22,2 C 20,6 C 74 % 1014,8 hPa 0,0 l/m 0 min 0 min 0 W/m 0,0 km/h (0 Bft) 100,00 %
28.08.2019 22:46 23,9 C 22,2 C 20,6 C 74 % 1014,8 hPa 0,0 l/m 0 min 0 min 0 W/m 0,0 km/h (0 Bft) 97,87 %
28.08.2019 22:48 23,9 C 22,2 C 20,6 C 74 % 1014,8 hPa 0,0 l/m 0 min 0 min 0 W/m 0,0 km/h (0 Bft) 97,87 %
28.08.2019 22:50 23,8 C 22,2 C 20,6 C 74 % 1014,8 hPa 0,0 l/m 0 min 0 min 0 W/m 0,0 km/h (0 Bft) 100,00 %
28.08.2019 22:52 23,8 C 22,2 C 20,6 C 75 % 1014,9 hPa 0,0 l/m 0 min 0 min 0 W/m 0,0 km/h (0 Bft) 97,87 %
28.08.2019 22:54 23,8 C 22,2 C 20,6 C 75 % 1014,9 hPa 0,0 l/m 0 min 0 min 0 W/m 0,0 km/h (0 Bft) 100,00 %
28.08.2019 22:56 23,8 C 22,2 C 20,6 C 75 % 1014,9 hPa 0,0 l/m 0 min 0 min 0 W/m 0,0 km/h (0 Bft) 100,00 %
28.08.2019 22:58 23,8 C 22,2 C 20,6 C 75 % 1015,0 hPa 0,0 l/m 0 min 0 min 0 W/m 0,0 km/h (0 Bft) 100,00 %
28.08.2019 23:00 23,7 C 21,7 C 20,6 C 75 % 1014,9 hPa 0,0 l/m 0 min 0 min 0 W/m 0,0 km/h (0 Bft) 100,00 %
28.08.2019 23:02 23,7 C 22,2 C 20,6 C 75 % 1015,0 hPa 0,0 l/m 0 min 0 min 0 W/m 0,0 km/h (0 Bft) 97,87 %
28.08.2019 23:04 23,7 C 22,2 C 20,6 C 75 % 1015,0 hPa 0,0 l/m 0 min 0 min 0 W/m 0,0 km/h (0 Bft) 100,00 %
28.08.2019 23:06 23,7 C 22,2 C 20,6 C 75 % 1015,0 hPa 0,0 l/m 0 min 0 min 0 W/m 0,0 km/h (0 Bft) 100,00 %
28.08.2019 23:08 23,6 C 22,2 C 20,6 C 75 % 1014,9 hPa 0,0 l/m 0 min 0 min 0 W/m 0,0 km/h (0 Bft) 100,00 %
28.08.2019 23:10 23,6 C 22,2 C 20,6 C 75 % 1015,0 hPa 0,0 l/m 0 min 0 min 0 W/m 0,0 km/h (0 Bft) 97,87 %
28.08.2019 23:12 23,6 C 22,2 C 21,1 C 75 % 1015,0 hPa 0,0 l/m 0 min 0 min 0 W/m 0,0 km/h (0 Bft) 97,87 %
28.08.2019 23:14 23,5 C 22,2 C 21,1 C 75 % 1015,0 hPa 0,0 l/m 0 min 0 min 0 W/m 0,0 km/h (0 Bft) 97,87 %
28.08.2019 23:16 23,5 C 22,2 C 21,1 C 75 % 1015,0 hPa 0,0 l/m 0 min 0 min 0 W/m 3,2 km/h (1 Bft) 100,00 %
28.08.2019 23:18 23,5 C 22,2 C 21,1 C 75 % 1015,0 hPa 0,0 l/m 0 min 0 min 0 W/m 0,0 km/h (0 Bft) 100,00 %
28.08.2019 23:20 23,4 C 22,2 C 21,1 C 75 % 1015,0 hPa 0,0 l/m 0 min 0 min 0 W/m 0,0 km/h (0 Bft) 97,83 %
28.08.2019 23:22 23,4 C 22,2 C 21,1 C 75 % 1015,0 hPa 0,0 l/m 0 min 0 min 0 W/m 0,0 km/h (0 Bft) 97,87 %
28.08.2019 23:24 23,4 C 22,2 C 20,6 C 75 % 1015,0 hPa 0,0 l/m 0 min 0 min 0 W/m 0,0 km/h (0 Bft) 97,87 %
28.08.2019 23:26 23,4 C 22,2 C 20,6 C 75 % 1015,1 hPa 0,0 l/m 0 min 0 min 0 W/m 0,0 km/h (0 Bft) 100,00 %
28.08.2019 23:28 23,4 C 22,2 C 20,6 C 75 % 1015,1 hPa 0,0 l/m 0 min 0 min 0 W/m 0,0 km/h (0 Bft) 100,00 %
28.08.2019 23:30 23,4 C 22,2 C 20,6 C 75 % 1015,1 hPa 0,0 l/m 0 min 0 min 0 W/m 0,0 km/h (0 Bft) 97,83 %
28.08.2019 23:32 23,4 C 22,2 C 20,6 C 75 % 1015,2 hPa 0,0 l/m 0 min 0 min 0 W/m 0,0 km/h (0 Bft) 95,74 %
28.08.2019 23:34 23,3 C 21,7 C 20,6 C 75 % 1015,1 hPa 0,0 l/m 0 min 0 min 0 W/m 0,0 km/h (0 Bft) 95,74 %
28.08.2019 23:36 23,3 C 21,7 C 20,6 C 75 % 1015,2 hPa 0,0 l/m 0 min 0 min 0 W/m 0,0 km/h (0 Bft) 95,74 %
28.08.2019 23:38 23,3 C 22,2 C 20,6 C 76 % 1015,2 hPa 0,0 l/m 0 min 0 min 0 W/m 0,0 km/h (0 Bft) 95,74 %
28.08.2019 23:40 23,3 C 22,2 C 20,6 C 76 % 1015,2 hPa 0,0 l/m 0 min 0 min 0 W/m 0,0 km/h (0 Bft) 93,62 %
28.08.2019 23:42 23,3 C 22,2 C 20,6 C 76 % 1015,3 hPa 0,0 l/m 0 min 0 min 0 W/m 0,0 km/h (0 Bft) 95,65 %
28.08.2019 23:44 23,3 C 21,7 C 20,6 C 76 % 1015,3 hPa 0,0 l/m 0 min 0 min 0 W/m 0,0 km/h (0 Bft) 93,62 %
28.08.2019 23:46 23,3 C 21,7 C 20,6 C 76 % 1015,3 hPa 0,0 l/m 0 min 0 min 0 W/m 0,0 km/h (0 Bft) 91,49 %
28.08.2019 23:48 23,2 C 21,7 C 20,6 C 76 % 1015,3 hPa 0,0 l/m 0 min 0 min 0 W/m 0,0 km/h (0 Bft) 93,62 %
28.08.2019 23:50 23,2 C 21,7 C 20,6 C 76 % 1015,3 hPa 0,0 l/m 0 min 0 min 0 W/m 0,0 km/h (0 Bft) 93,62 %
28.08.2019 23:52 23,2 C 21,7 C 20,6 C 76 % 1015,3 hPa 0,0 l/m 0 min 0 min 0 W/m 0,0 km/h (0 Bft) 93,62 %
28.08.2019 23:54 23,2 C 21,7 C 20,6 C 76 % 1015,3 hPa 0,0 l/m 0 min 0 min 0 W/m 0,0 km/h (0 Bft) 91,30 %
28.08.2019 23:56 23,2 C 21,7 C 20,6 C 77 % 1015,3 hPa 0,0 l/m 0 min 0 min 0 W/m 0,0 km/h (0 Bft) 93,62 %
28.08.2019 23:58 23,2 C 21,7 C 20,6 C 76 % 1015,3 hPa 0,0 l/m 0 min 0 min 0 W/m 0,0 km/h (0 Bft) 93,62 %
_ Min-Zeit 07:30 06:20 06:14 16:58 03:24 - - - - 00:00 21:22
Minimum _ 19,9 C 18,9 C 18,9 C 47 % 1010,7 hPa - - - - 0,0 km/h (0 Bft) 89,13 %
_ Max-Zeit 16:18 12:32 10:40 07:56 23:42 00:00 12:08 00:00 13:36 13:38 00:02
Maximum _ 32,2 C 36,7 C 33,3 C 91 % 1015,3 hPa 0,0 l/m 4 min 0 min 916 W/m 22,5 km/h
S-SO (4 Bft)
100,00 %
Durchschnitt _ 25,6 C 25,9 C 24,4 C 70 % 1013,2 hPa #0,0 l/m #8:22 h #0 min. 349 W/m 5,3 km/h (1 Bft) 97,42 %
© 2019 W. Hausmann